<?xml version="1.0" encoding="utf-8"?>
<gpx xmlns:xsi="http://www.w3.org/2001/XMLSchema-instance" xmlns:xsd="http://www.w3.org/2001/XMLSchema" version="1.1" creator="Shapelink.com" xmlns="http://www.topografix.com/GPX/1/1" xmlns:gpxtpx="http://www.garmin.com/xmlschemas/TrackPointExtension/v1">
  <metadata>
    <name>Gåing 12.00 km, 2013-09-07</name>
    <desc></desc>
    <author><name>Alexander Engvall</name></author> 
    <time>2013-09-07T17:00:44Z</time>
  </metadata>
  <trk>
    <name>Gåing 12.00 km, 2013-09-07</name>
    <trkseg>
      <trkpt lat="42.4797475" lon="1.4549686">
        <ele>817.4</ele>
        <time>2013-09-07T17:00:44Z</time>
      </trkpt>
      <trkpt lat="42.4798146" lon="1.4549727">
        <ele>819</ele>
        <time>2013-09-07T17:00:46Z</time>
      </trkpt>
      <trkpt lat="42.4798974" lon="1.4549819">
        <ele>821</ele>
        <time>2013-09-07T17:00:48Z</time>
      </trkpt>
      <trkpt lat="42.4801162" lon="1.4550297">
        <ele>827.2</ele>
        <time>2013-09-07T17:00:53Z</time>
      </trkpt>
      <trkpt lat="42.4802167" lon="1.4550587">
        <ele>830.6</ele>
        <time>2013-09-07T17:00:55Z</time>
      </trkpt>
      <trkpt lat="42.4804539" lon="1.4551897">
        <ele>842</ele>
        <time>2013-09-07T17:01:00Z</time>
      </trkpt>
      <trkpt lat="42.4808383" lon="1.4553977">
        <ele>861</ele>
        <time>2013-09-07T17:01:05Z</time>
      </trkpt>
      <trkpt lat="42.4809151" lon="1.4554413">
        <ele>865.4</ele>
        <time>2013-09-07T17:01:06Z</time>
      </trkpt>
      <trkpt lat="42.4812438" lon="1.4556574">
        <ele>890</ele>
        <time>2013-09-07T17:01:11Z</time>
      </trkpt>
      <trkpt lat="42.4813597" lon="1.4557514">
        <ele>901</ele>
        <time>2013-09-07T17:01:13Z</time>
      </trkpt>
      <trkpt lat="42.4814897" lon="1.4558492">
        <ele>913</ele>
        <time>2013-09-07T17:01:15Z</time>
      </trkpt>
      <trkpt lat="42.4820079" lon="1.4560823">
        <ele>947.8</ele>
        <time>2013-09-07T17:01:20Z</time>
      </trkpt>
      <trkpt lat="42.4825005" lon="1.4561826">
        <ele>995.2</ele>
        <time>2013-09-07T17:01:27Z</time>
      </trkpt>
      <trkpt lat="42.4826958" lon="1.4562282">
        <ele>1027</ele>
        <time>2013-09-07T17:01:32Z</time>
      </trkpt>
      <trkpt lat="42.4827344" lon="1.4562283">
        <ele>1032.8</ele>
        <time>2013-09-07T17:01:33Z</time>
      </trkpt>
      <trkpt lat="42.4827598" lon="1.4562114">
        <ele>1054</ele>
        <time>2013-09-07T17:01:37Z</time>
      </trkpt>
      <trkpt lat="42.4828058" lon="1.4561816">
        <ele>1081.8</ele>
        <time>2013-09-07T17:01:43Z</time>
      </trkpt>
      <trkpt lat="42.4828923" lon="1.4561562">
        <ele>1108.8</ele>
        <time>2013-09-07T17:01:50Z</time>
      </trkpt>
      <trkpt lat="42.4830243" lon="1.4561155">
        <ele>1134.4</ele>
        <time>2013-09-07T17:01:58Z</time>
      </trkpt>
      <trkpt lat="42.483098" lon="1.4560305">
        <ele>1154.6</ele>
        <time>2013-09-07T17:02:06Z</time>
      </trkpt>
      <trkpt lat="42.4831374" lon="1.4559702">
        <ele>1165</ele>
        <time>2013-09-07T17:02:11Z</time>
      </trkpt>
      <trkpt lat="42.4831436" lon="1.4559579">
        <ele>1167</ele>
        <time>2013-09-07T17:02:12Z</time>
      </trkpt>
      <trkpt lat="42.4831273" lon="1.4558775">
        <ele>1175.6</ele>
        <time>2013-09-07T17:02:17Z</time>
      </trkpt>
      <trkpt lat="42.4831393" lon="1.4558471">
        <ele>1181.6</ele>
        <time>2013-09-07T17:02:21Z</time>
      </trkpt>
      <trkpt lat="42.483134" lon="1.4558309">
        <ele>1184.6</ele>
        <time>2013-09-07T17:02:23Z</time>
      </trkpt>
      <trkpt lat="42.4830998" lon="1.4557751">
        <ele>1191.2</ele>
        <time>2013-09-07T17:02:28Z</time>
      </trkpt>
      <trkpt lat="42.4831081" lon="1.4557435">
        <ele>1195</ele>
        <time>2013-09-07T17:02:31Z</time>
      </trkpt>
      <trkpt lat="42.4830731" lon="1.4556845">
        <ele>1198.4</ele>
        <time>2013-09-07T17:02:34Z</time>
      </trkpt>
      <trkpt lat="42.4830534" lon="1.4556479">
        <ele>1201.4</ele>
        <time>2013-09-07T17:02:37Z</time>
      </trkpt>
      <trkpt lat="42.4830847" lon="1.4556594">
        <ele>1204.2</ele>
        <time>2013-09-07T17:02:40Z</time>
      </trkpt>
      <trkpt lat="42.4830606" lon="1.4555664">
        <ele>1207.8</ele>
        <time>2013-09-07T17:02:44Z</time>
      </trkpt>
      <trkpt lat="42.4830503" lon="1.455533">
        <ele>1211.4</ele>
        <time>2013-09-07T17:02:49Z</time>
      </trkpt>
      <trkpt lat="42.4830682" lon="1.4555291">
        <ele>1212.6</ele>
        <time>2013-09-07T17:02:51Z</time>
      </trkpt>
      <trkpt lat="42.4830404" lon="1.4554937">
        <ele>1213.8</ele>
        <time>2013-09-07T17:02:53Z</time>
      </trkpt>
      <trkpt lat="42.482827" lon="1.4553118">
        <ele>1216.4</ele>
        <time>2013-09-07T17:02:57Z</time>
      </trkpt>
      <trkpt lat="42.4828222" lon="1.4552869">
        <ele>1217.8</ele>
        <time>2013-09-07T17:03:00Z</time>
      </trkpt>
      <trkpt lat="42.4828259" lon="1.455282">
        <ele>1218.4</ele>
        <time>2013-09-07T17:03:01Z</time>
      </trkpt>
      <trkpt lat="42.4829152" lon="1.4553311">
        <ele>1221.4</ele>
        <time>2013-09-07T17:03:08Z</time>
      </trkpt>
      <trkpt lat="42.482928" lon="1.4553286">
        <ele>1221.8</ele>
        <time>2013-09-07T17:03:09Z</time>
      </trkpt>
      <trkpt lat="42.4829313" lon="1.4552997">
        <ele>1223</ele>
        <time>2013-09-07T17:03:13Z</time>
      </trkpt>
      <trkpt lat="42.4829259" lon="1.4552785">
        <ele>1223.8</ele>
        <time>2013-09-07T17:03:15Z</time>
      </trkpt>
      <trkpt lat="42.48297" lon="1.4552856">
        <ele>1224.4</ele>
        <time>2013-09-07T17:03:17Z</time>
      </trkpt>
      <trkpt lat="42.4829894" lon="1.4552679">
        <ele>1225.2</ele>
        <time>2013-09-07T17:03:19Z</time>
      </trkpt>
      <trkpt lat="42.4829981" lon="1.4552571">
        <ele>1225.6</ele>
        <time>2013-09-07T17:03:20Z</time>
      </trkpt>
      <trkpt lat="42.4830663" lon="1.4552763">
        <ele>1226.8</ele>
        <time>2013-09-07T17:03:25Z</time>
      </trkpt>
      <trkpt lat="42.4830717" lon="1.4552856">
        <ele>1227</ele>
        <time>2013-09-07T17:03:26Z</time>
      </trkpt>
      <trkpt lat="42.4831472" lon="1.4553823">
        <ele>1227.6</ele>
        <time>2013-09-07T17:03:34Z</time>
      </trkpt>
      <trkpt lat="42.4831499" lon="1.455397">
        <ele>1227.6</ele>
        <time>2013-09-07T17:03:35Z</time>
      </trkpt>
      <trkpt lat="42.4831847" lon="1.4554638">
        <ele>1227.4</ele>
        <time>2013-09-07T17:03:41Z</time>
      </trkpt>
      <trkpt lat="42.4832266" lon="1.4555476">
        <ele>1227.2</ele>
        <time>2013-09-07T17:03:48Z</time>
      </trkpt>
      <trkpt lat="42.4832834" lon="1.4556544">
        <ele>1227</ele>
        <time>2013-09-07T17:03:56Z</time>
      </trkpt>
      <trkpt lat="42.4833444" lon="1.4558711">
        <ele>1226.8</ele>
        <time>2013-09-07T17:04:09Z</time>
      </trkpt>
      <trkpt lat="42.4833512" lon="1.455997">
        <ele>1227.6</ele>
        <time>2013-09-07T17:04:16Z</time>
      </trkpt>
      <trkpt lat="42.4833547" lon="1.4560813">
        <ele>1228</ele>
        <time>2013-09-07T17:04:24Z</time>
      </trkpt>
      <trkpt lat="42.483357" lon="1.4560839">
        <ele>1228</ele>
        <time>2013-09-07T17:04:25Z</time>
      </trkpt>
      <trkpt lat="42.483356" lon="1.4560991">
        <ele>1227.8</ele>
        <time>2013-09-07T17:04:27Z</time>
      </trkpt>
      <trkpt lat="42.4833455" lon="1.4561274">
        <ele>1227.8</ele>
        <time>2013-09-07T17:04:30Z</time>
      </trkpt>
      <trkpt lat="42.4833384" lon="1.4562228">
        <ele>1227.8</ele>
        <time>2013-09-07T17:04:38Z</time>
      </trkpt>
      <trkpt lat="42.4833309" lon="1.4563452">
        <ele>1227.8</ele>
        <time>2013-09-07T17:04:47Z</time>
      </trkpt>
      <trkpt lat="42.483316" lon="1.4563964">
        <ele>1228</ele>
        <time>2013-09-07T17:04:53Z</time>
      </trkpt>
      <trkpt lat="42.4833011" lon="1.456523">
        <ele>1228.6</ele>
        <time>2013-09-07T17:04:59Z</time>
      </trkpt>
      <trkpt lat="42.4832627" lon="1.4566524">
        <ele>1228.8</ele>
        <time>2013-09-07T17:05:07Z</time>
      </trkpt>
      <trkpt lat="42.4832207" lon="1.4568233">
        <ele>1230.4</ele>
        <time>2013-09-07T17:05:16Z</time>
      </trkpt>
      <trkpt lat="42.4831474" lon="1.4569069">
        <ele>1230.2</ele>
        <time>2013-09-07T17:05:24Z</time>
      </trkpt>
      <trkpt lat="42.4830731" lon="1.456994">
        <ele>1229.4</ele>
        <time>2013-09-07T17:05:32Z</time>
      </trkpt>
      <trkpt lat="42.4830641" lon="1.4570987">
        <ele>1229</ele>
        <time>2013-09-07T17:05:38Z</time>
      </trkpt>
      <trkpt lat="42.4830677" lon="1.4571799">
        <ele>1228.6</ele>
        <time>2013-09-07T17:05:43Z</time>
      </trkpt>
      <trkpt lat="42.4830819" lon="1.4572036">
        <ele>1228</ele>
        <time>2013-09-07T17:05:47Z</time>
      </trkpt>
      <trkpt lat="42.4831318" lon="1.4571825">
        <ele>1227.2</ele>
        <time>2013-09-07T17:05:53Z</time>
      </trkpt>
      <trkpt lat="42.4831819" lon="1.4571475">
        <ele>1225.6</ele>
        <time>2013-09-07T17:06:01Z</time>
      </trkpt>
      <trkpt lat="42.4832228" lon="1.4571348">
        <ele>1224.6</ele>
        <time>2013-09-07T17:06:06Z</time>
      </trkpt>
      <trkpt lat="42.4832258" lon="1.4571275">
        <ele>1223.4</ele>
        <time>2013-09-07T17:06:13Z</time>
      </trkpt>
      <trkpt lat="42.4832802" lon="1.4570966">
        <ele>1217</ele>
        <time>2013-09-07T17:06:49Z</time>
      </trkpt>
      <trkpt lat="42.4833389" lon="1.4570644">
        <ele>1216.4</ele>
        <time>2013-09-07T17:06:53Z</time>
      </trkpt>
      <trkpt lat="42.4834161" lon="1.4570132">
        <ele>1216</ele>
        <time>2013-09-07T17:06:58Z</time>
      </trkpt>
      <trkpt lat="42.4834443" lon="1.4569892">
        <ele>1215.8</ele>
        <time>2013-09-07T17:07:00Z</time>
      </trkpt>
      <trkpt lat="42.4836292" lon="1.4569284">
        <ele>1216</ele>
        <time>2013-09-07T17:07:06Z</time>
      </trkpt>
      <trkpt lat="42.4836837" lon="1.4568389">
        <ele>1216.6</ele>
        <time>2013-09-07T17:07:12Z</time>
      </trkpt>
      <trkpt lat="42.4837192" lon="1.4568359">
        <ele>1217</ele>
        <time>2013-09-07T17:07:13Z</time>
      </trkpt>
      <trkpt lat="42.483696" lon="1.4567125">
        <ele>1217.6</ele>
        <time>2013-09-07T17:07:20Z</time>
      </trkpt>
      <trkpt lat="42.4836246" lon="1.4565533">
        <ele>1218.2</ele>
        <time>2013-09-07T17:07:26Z</time>
      </trkpt>
      <trkpt lat="42.4835772" lon="1.4564916">
        <ele>1218.2</ele>
        <time>2013-09-07T17:07:28Z</time>
      </trkpt>
      <trkpt lat="42.4835834" lon="1.4564273">
        <ele>1218.8</ele>
        <time>2013-09-07T17:07:31Z</time>
      </trkpt>
      <trkpt lat="42.4836405" lon="1.4563365">
        <ele>1220</ele>
        <time>2013-09-07T17:07:37Z</time>
      </trkpt>
      <trkpt lat="42.483626" lon="1.4562303">
        <ele>1220</ele>
        <time>2013-09-07T17:07:42Z</time>
      </trkpt>
      <trkpt lat="42.4835933" lon="1.456161">
        <ele>1219.8</ele>
        <time>2013-09-07T17:07:45Z</time>
      </trkpt>
      <trkpt lat="42.4836049" lon="1.4561344">
        <ele>1219.8</ele>
        <time>2013-09-07T17:07:47Z</time>
      </trkpt>
      <trkpt lat="42.4836497" lon="1.4561152">
        <ele>1219.8</ele>
        <time>2013-09-07T17:07:49Z</time>
      </trkpt>
      <trkpt lat="42.4836488" lon="1.4560655">
        <ele>1219.6</ele>
        <time>2013-09-07T17:07:52Z</time>
      </trkpt>
      <trkpt lat="42.4836471" lon="1.4560234">
        <ele>1219.6</ele>
        <time>2013-09-07T17:07:54Z</time>
      </trkpt>
      <trkpt lat="42.4836585" lon="1.4560104">
        <ele>1219.6</ele>
        <time>2013-09-07T17:07:55Z</time>
      </trkpt>
      <trkpt lat="42.48375" lon="1.4559586">
        <ele>1219.6</ele>
        <time>2013-09-07T17:08:00Z</time>
      </trkpt>
      <trkpt lat="42.4837487" lon="1.4558516">
        <ele>1219.4</ele>
        <time>2013-09-07T17:08:06Z</time>
      </trkpt>
      <trkpt lat="42.4838486" lon="1.4557725">
        <ele>1219.2</ele>
        <time>2013-09-07T17:08:13Z</time>
      </trkpt>
      <trkpt lat="42.483917" lon="1.4557179">
        <ele>1219</ele>
        <time>2013-09-07T17:08:19Z</time>
      </trkpt>
      <trkpt lat="42.4839543" lon="1.4556817">
        <ele>1219</ele>
        <time>2013-09-07T17:08:23Z</time>
      </trkpt>
      <trkpt lat="42.4839512" lon="1.4556604">
        <ele>1218.8</ele>
        <time>2013-09-07T17:08:25Z</time>
      </trkpt>
      <trkpt lat="42.4839314" lon="1.4555871">
        <ele>1218.6</ele>
        <time>2013-09-07T17:08:30Z</time>
      </trkpt>
      <trkpt lat="42.4839831" lon="1.4555235">
        <ele>1218.6</ele>
        <time>2013-09-07T17:08:35Z</time>
      </trkpt>
      <trkpt lat="42.4841227" lon="1.4554042">
        <ele>1223.4</ele>
        <time>2013-09-07T17:08:42Z</time>
      </trkpt>
      <trkpt lat="42.4839927" lon="1.4553313">
        <ele>1224</ele>
        <time>2013-09-07T17:08:46Z</time>
      </trkpt>
      <trkpt lat="42.483978" lon="1.4553304">
        <ele>1224</ele>
        <time>2013-09-07T17:08:47Z</time>
      </trkpt>
      <trkpt lat="42.483911" lon="1.4553895">
        <ele>1223.6</ele>
        <time>2013-09-07T17:08:53Z</time>
      </trkpt>
      <trkpt lat="42.4838826" lon="1.4554687">
        <ele>1222.8</ele>
        <time>2013-09-07T17:09:00Z</time>
      </trkpt>
      <trkpt lat="42.4838735" lon="1.4555059">
        <ele>1222.2</ele>
        <time>2013-09-07T17:09:03Z</time>
      </trkpt>
      <trkpt lat="42.4838621" lon="1.4555824">
        <ele>1221</ele>
        <time>2013-09-07T17:09:09Z</time>
      </trkpt>
      <trkpt lat="42.4838716" lon="1.455736">
        <ele>1219.2</ele>
        <time>2013-09-07T17:09:18Z</time>
      </trkpt>
      <trkpt lat="42.4838701" lon="1.455744">
        <ele>1219</ele>
        <time>2013-09-07T17:09:19Z</time>
      </trkpt>
      <trkpt lat="42.4838525" lon="1.4557818">
        <ele>1218.4</ele>
        <time>2013-09-07T17:09:22Z</time>
      </trkpt>
      <trkpt lat="42.4838472" lon="1.4558035">
        <ele>1218.2</ele>
        <time>2013-09-07T17:09:23Z</time>
      </trkpt>
      <trkpt lat="42.4838402" lon="1.4559128">
        <ele>1217.2</ele>
        <time>2013-09-07T17:09:29Z</time>
      </trkpt>
      <trkpt lat="42.483838" lon="1.4560517">
        <ele>1216.4</ele>
        <time>2013-09-07T17:09:36Z</time>
      </trkpt>
      <trkpt lat="42.4838639" lon="1.4561144">
        <ele>1215.2</ele>
        <time>2013-09-07T17:09:43Z</time>
      </trkpt>
      <trkpt lat="42.4838876" lon="1.4562508">
        <ele>1213.8</ele>
        <time>2013-09-07T17:09:51Z</time>
      </trkpt>
      <trkpt lat="42.4839102" lon="1.4564081">
        <ele>1212.4</ele>
        <time>2013-09-07T17:10:00Z</time>
      </trkpt>
      <trkpt lat="42.4839682" lon="1.4566479">
        <ele>1211.8</ele>
        <time>2013-09-07T17:10:10Z</time>
      </trkpt>
      <trkpt lat="42.4839741" lon="1.4566555">
        <ele>1211.2</ele>
        <time>2013-09-07T17:10:17Z</time>
      </trkpt>
      <trkpt lat="42.4839533" lon="1.4567096">
        <ele>1209</ele>
        <time>2013-09-07T17:10:35Z</time>
      </trkpt>
      <trkpt lat="42.4839672" lon="1.4568622">
        <ele>1208.4</ele>
        <time>2013-09-07T17:10:43Z</time>
      </trkpt>
      <trkpt lat="42.4839795" lon="1.4569702">
        <ele>1207.6</ele>
        <time>2013-09-07T17:10:50Z</time>
      </trkpt>
      <trkpt lat="42.4839992" lon="1.4570597">
        <ele>1207.2</ele>
        <time>2013-09-07T17:10:56Z</time>
      </trkpt>
      <trkpt lat="42.4839916" lon="1.4571712">
        <ele>1206.6</ele>
        <time>2013-09-07T17:11:03Z</time>
      </trkpt>
      <trkpt lat="42.4839817" lon="1.4571822">
        <ele>1206.4</ele>
        <time>2013-09-07T17:11:04Z</time>
      </trkpt>
      <trkpt lat="42.4839668" lon="1.4572828">
        <ele>1205.4</ele>
        <time>2013-09-07T17:11:11Z</time>
      </trkpt>
      <trkpt lat="42.4839306" lon="1.4574344">
        <ele>1203.4</ele>
        <time>2013-09-07T17:11:22Z</time>
      </trkpt>
      <trkpt lat="42.4839201" lon="1.4576001">
        <ele>1202</ele>
        <time>2013-09-07T17:11:30Z</time>
      </trkpt>
      <trkpt lat="42.4839071" lon="1.4576702">
        <ele>1201</ele>
        <time>2013-09-07T17:11:35Z</time>
      </trkpt>
      <trkpt lat="42.4838432" lon="1.457706">
        <ele>1199.8</ele>
        <time>2013-09-07T17:11:39Z</time>
      </trkpt>
      <trkpt lat="42.4837821" lon="1.4578345">
        <ele>1197.2</ele>
        <time>2013-09-07T17:11:49Z</time>
      </trkpt>
      <trkpt lat="42.4837054" lon="1.4579772">
        <ele>1194</ele>
        <time>2013-09-07T17:12:00Z</time>
      </trkpt>
      <trkpt lat="42.4836469" lon="1.4580951">
        <ele>1191.6</ele>
        <time>2013-09-07T17:12:08Z</time>
      </trkpt>
      <trkpt lat="42.4836237" lon="1.4581154">
        <ele>1189.8</ele>
        <time>2013-09-07T17:12:15Z</time>
      </trkpt>
      <trkpt lat="42.4835946" lon="1.4581787">
        <ele>1189</ele>
        <time>2013-09-07T17:12:20Z</time>
      </trkpt>
      <trkpt lat="42.4835849" lon="1.4582653">
        <ele>1188</ele>
        <time>2013-09-07T17:12:25Z</time>
      </trkpt>
      <trkpt lat="42.4835855" lon="1.4582666">
        <ele>1187.8</ele>
        <time>2013-09-07T17:12:27Z</time>
      </trkpt>
      <trkpt lat="42.4836001" lon="1.4583333">
        <ele>1186.8</ele>
        <time>2013-09-07T17:12:33Z</time>
      </trkpt>
      <trkpt lat="42.4836108" lon="1.4584002">
        <ele>1185.8</ele>
        <time>2013-09-07T17:12:40Z</time>
      </trkpt>
      <trkpt lat="42.4836439" lon="1.4584422">
        <ele>1184.8</ele>
        <time>2013-09-07T17:12:46Z</time>
      </trkpt>
      <trkpt lat="42.483652" lon="1.4584414">
        <ele>1184.6</ele>
        <time>2013-09-07T17:12:47Z</time>
      </trkpt>
      <trkpt lat="42.4836348" lon="1.4584734">
        <ele>1183.2</ele>
        <time>2013-09-07T17:12:54Z</time>
      </trkpt>
      <trkpt lat="42.4835622" lon="1.4585574">
        <ele>1181.2</ele>
        <time>2013-09-07T17:13:02Z</time>
      </trkpt>
      <trkpt lat="42.4834781" lon="1.4586177">
        <ele>1178.8</ele>
        <time>2013-09-07T17:13:11Z</time>
      </trkpt>
      <trkpt lat="42.4834715" lon="1.4586179">
        <ele>1178.6</ele>
        <time>2013-09-07T17:13:12Z</time>
      </trkpt>
      <trkpt lat="42.4834088" lon="1.4586003">
        <ele>1177</ele>
        <time>2013-09-07T17:13:18Z</time>
      </trkpt>
      <trkpt lat="42.4833921" lon="1.4585603">
        <ele>1176.4</ele>
        <time>2013-09-07T17:13:20Z</time>
      </trkpt>
      <trkpt lat="42.4833345" lon="1.4585969">
        <ele>1174.8</ele>
        <time>2013-09-07T17:13:25Z</time>
      </trkpt>
      <trkpt lat="42.4832358" lon="1.4586221">
        <ele>1171.6</ele>
        <time>2013-09-07T17:13:34Z</time>
      </trkpt>
      <trkpt lat="42.4831309" lon="1.4585925">
        <ele>1168.2</ele>
        <time>2013-09-07T17:13:43Z</time>
      </trkpt>
      <trkpt lat="42.4830312" lon="1.4585396">
        <ele>1166</ele>
        <time>2013-09-07T17:13:50Z</time>
      </trkpt>
      <trkpt lat="42.4829172" lon="1.4585412">
        <ele>1163</ele>
        <time>2013-09-07T17:14:00Z</time>
      </trkpt>
      <trkpt lat="42.4828336" lon="1.458538">
        <ele>1161.4</ele>
        <time>2013-09-07T17:14:06Z</time>
      </trkpt>
      <trkpt lat="42.4828138" lon="1.4585269">
        <ele>1161.2</ele>
        <time>2013-09-07T17:14:08Z</time>
      </trkpt>
      <trkpt lat="42.4827199" lon="1.4585533">
        <ele>1160.2</ele>
        <time>2013-09-07T17:14:14Z</time>
      </trkpt>
      <trkpt lat="42.4826755" lon="1.4585628">
        <ele>1159.6</ele>
        <time>2013-09-07T17:14:19Z</time>
      </trkpt>
      <trkpt lat="42.482567" lon="1.4585876">
        <ele>1159.2</ele>
        <time>2013-09-07T17:14:25Z</time>
      </trkpt>
      <trkpt lat="42.4824482" lon="1.4586325">
        <ele>1158.4</ele>
        <time>2013-09-07T17:14:35Z</time>
      </trkpt>
      <trkpt lat="42.4824298" lon="1.4586339">
        <ele>1158</ele>
        <time>2013-09-07T17:14:41Z</time>
      </trkpt>
      <trkpt lat="42.4823567" lon="1.4586463">
        <ele>1157.6</ele>
        <time>2013-09-07T17:14:51Z</time>
      </trkpt>
      <trkpt lat="42.4822824" lon="1.4586489">
        <ele>1156.8</ele>
        <time>2013-09-07T17:15:00Z</time>
      </trkpt>
      <trkpt lat="42.4822804" lon="1.4586321">
        <ele>1156.6</ele>
        <time>2013-09-07T17:15:02Z</time>
      </trkpt>
      <trkpt lat="42.4822328" lon="1.4586707">
        <ele>1156.4</ele>
        <time>2013-09-07T17:15:06Z</time>
      </trkpt>
      <trkpt lat="42.4821763" lon="1.4587103">
        <ele>1156</ele>
        <time>2013-09-07T17:15:11Z</time>
      </trkpt>
      <trkpt lat="42.4821672" lon="1.4586873">
        <ele>1155.8</ele>
        <time>2013-09-07T17:15:20Z</time>
      </trkpt>
      <trkpt lat="42.482123" lon="1.4586953">
        <ele>1155.6</ele>
        <time>2013-09-07T17:15:25Z</time>
      </trkpt>
      <trkpt lat="42.4820493" lon="1.4587216">
        <ele>1155.2</ele>
        <time>2013-09-07T17:15:31Z</time>
      </trkpt>
      <trkpt lat="42.4820356" lon="1.4587177">
        <ele>1155.2</ele>
        <time>2013-09-07T17:15:32Z</time>
      </trkpt>
      <trkpt lat="42.4819517" lon="1.4587233">
        <ele>1154.6</ele>
        <time>2013-09-07T17:15:39Z</time>
      </trkpt>
      <trkpt lat="42.4819126" lon="1.458723">
        <ele>1154.4</ele>
        <time>2013-09-07T17:15:42Z</time>
      </trkpt>
      <trkpt lat="42.4818068" lon="1.458782">
        <ele>1153.8</ele>
        <time>2013-09-07T17:15:50Z</time>
      </trkpt>
      <trkpt lat="42.4817118" lon="1.4588006">
        <ele>1152.8</ele>
        <time>2013-09-07T17:15:58Z</time>
      </trkpt>
      <trkpt lat="42.4816097" lon="1.458856">
        <ele>1151.8</ele>
        <time>2013-09-07T17:16:05Z</time>
      </trkpt>
      <trkpt lat="42.4816042" lon="1.458849">
        <ele>1151.6</ele>
        <time>2013-09-07T17:16:06Z</time>
      </trkpt>
      <trkpt lat="42.4815669" lon="1.4588629">
        <ele>1151</ele>
        <time>2013-09-07T17:16:09Z</time>
      </trkpt>
      <trkpt lat="42.4815361" lon="1.4588604">
        <ele>1150.8</ele>
        <time>2013-09-07T17:16:11Z</time>
      </trkpt>
      <trkpt lat="42.4814704" lon="1.4588201">
        <ele>1149.6</ele>
        <time>2013-09-07T17:16:18Z</time>
      </trkpt>
      <trkpt lat="42.4813712" lon="1.4588803">
        <ele>1149.2</ele>
        <time>2013-09-07T17:16:23Z</time>
      </trkpt>
      <trkpt lat="42.4813184" lon="1.4588831">
        <ele>1148.6</ele>
        <time>2013-09-07T17:16:29Z</time>
      </trkpt>
      <trkpt lat="42.4812259" lon="1.4589483">
        <ele>1147.8</ele>
        <time>2013-09-07T17:16:35Z</time>
      </trkpt>
      <trkpt lat="42.4811211" lon="1.4590207">
        <ele>1147.2</ele>
        <time>2013-09-07T17:16:42Z</time>
      </trkpt>
      <trkpt lat="42.4810778" lon="1.4590392">
        <ele>1146.8</ele>
        <time>2013-09-07T17:16:46Z</time>
      </trkpt>
      <trkpt lat="42.4810694" lon="1.4590406">
        <ele>1146.6</ele>
        <time>2013-09-07T17:16:47Z</time>
      </trkpt>
      <trkpt lat="42.4810105" lon="1.4591022">
        <ele>1145.4</ele>
        <time>2013-09-07T17:16:54Z</time>
      </trkpt>
      <trkpt lat="42.4809386" lon="1.4592175">
        <ele>1145</ele>
        <time>2013-09-07T17:17:01Z</time>
      </trkpt>
      <trkpt lat="42.480916" lon="1.4593096">
        <ele>1144.4</ele>
        <time>2013-09-07T17:17:09Z</time>
      </trkpt>
      <trkpt lat="42.4808844" lon="1.4594015">
        <ele>1144.2</ele>
        <time>2013-09-07T17:17:14Z</time>
      </trkpt>
      <trkpt lat="42.4808663" lon="1.4594514">
        <ele>1144.2</ele>
        <time>2013-09-07T17:17:17Z</time>
      </trkpt>
      <trkpt lat="42.4808326" lon="1.4595939">
        <ele>1143.6</ele>
        <time>2013-09-07T17:17:26Z</time>
      </trkpt>
      <trkpt lat="42.4808012" lon="1.4597439">
        <ele>1142.6</ele>
        <time>2013-09-07T17:17:35Z</time>
      </trkpt>
      <trkpt lat="42.4807654" lon="1.4598999">
        <ele>1141.4</ele>
        <time>2013-09-07T17:17:45Z</time>
      </trkpt>
      <trkpt lat="42.4807408" lon="1.4600404">
        <ele>1140.2</ele>
        <time>2013-09-07T17:17:53Z</time>
      </trkpt>
      <trkpt lat="42.4806974" lon="1.4602242">
        <ele>1139.2</ele>
        <time>2013-09-07T17:18:02Z</time>
      </trkpt>
      <trkpt lat="42.4806806" lon="1.4603879">
        <ele>1138.2</ele>
        <time>2013-09-07T17:18:12Z</time>
      </trkpt>
      <trkpt lat="42.4806764" lon="1.4604911">
        <ele>1137</ele>
        <time>2013-09-07T17:18:19Z</time>
      </trkpt>
      <trkpt lat="42.4806626" lon="1.460662">
        <ele>1135.4</ele>
        <time>2013-09-07T17:18:29Z</time>
      </trkpt>
      <trkpt lat="42.4806434" lon="1.4607853">
        <ele>1134</ele>
        <time>2013-09-07T17:18:37Z</time>
      </trkpt>
      <trkpt lat="42.4806061" lon="1.4608837">
        <ele>1132.8</ele>
        <time>2013-09-07T17:18:44Z</time>
      </trkpt>
      <trkpt lat="42.4805991" lon="1.4608847">
        <ele>1132.8</ele>
        <time>2013-09-07T17:18:45Z</time>
      </trkpt>
      <trkpt lat="42.4805747" lon="1.4609018">
        <ele>1131.8</ele>
        <time>2013-09-07T17:18:49Z</time>
      </trkpt>
      <trkpt lat="42.4805064" lon="1.4609268">
        <ele>1131.2</ele>
        <time>2013-09-07T17:18:55Z</time>
      </trkpt>
      <trkpt lat="42.4804636" lon="1.4609656">
        <ele>1130.8</ele>
        <time>2013-09-07T17:19:01Z</time>
      </trkpt>
      <trkpt lat="42.4804576" lon="1.460928">
        <ele>1130.4</ele>
        <time>2013-09-07T17:19:04Z</time>
      </trkpt>
      <trkpt lat="42.4803934" lon="1.4607848">
        <ele>1129.6</ele>
        <time>2013-09-07T17:19:16Z</time>
      </trkpt>
      <trkpt lat="42.4803655" lon="1.4607981">
        <ele>1129.8</ele>
        <time>2013-09-07T17:19:19Z</time>
      </trkpt>
      <trkpt lat="42.4801566" lon="1.4603966">
        <ele>1139.8</ele>
        <time>2013-09-07T17:19:41Z</time>
      </trkpt>
      <trkpt lat="42.4801308" lon="1.4603568">
        <ele>1142.8</ele>
        <time>2013-09-07T17:19:43Z</time>
      </trkpt>
      <trkpt lat="42.480106" lon="1.4602889">
        <ele>1145.6</ele>
        <time>2013-09-07T17:19:45Z</time>
      </trkpt>
      <trkpt lat="42.4800554" lon="1.4602915">
        <ele>1153.4</ele>
        <time>2013-09-07T17:19:51Z</time>
      </trkpt>
      <trkpt lat="42.4799972" lon="1.4604475">
        <ele>1160.6</ele>
        <time>2013-09-07T17:19:58Z</time>
      </trkpt>
      <trkpt lat="42.479965" lon="1.4605558">
        <ele>1164.4</ele>
        <time>2013-09-07T17:20:04Z</time>
      </trkpt>
      <trkpt lat="42.4799692" lon="1.4605887">
        <ele>1164.4</ele>
        <time>2013-09-07T17:20:05Z</time>
      </trkpt>
      <trkpt lat="42.4799511" lon="1.4606696">
        <ele>1164.8</ele>
        <time>2013-09-07T17:20:09Z</time>
      </trkpt>
      <trkpt lat="42.4799452" lon="1.4607219">
        <ele>1164.8</ele>
        <time>2013-09-07T17:20:11Z</time>
      </trkpt>
      <trkpt lat="42.4799624" lon="1.460761">
        <ele>1164.4</ele>
        <time>2013-09-07T17:20:12Z</time>
      </trkpt>
      <trkpt lat="42.480009" lon="1.4608607">
        <ele>1163.6</ele>
        <time>2013-09-07T17:20:16Z</time>
      </trkpt>
      <trkpt lat="42.4800806" lon="1.4609513">
        <ele>1162.2</ele>
        <time>2013-09-07T17:20:20Z</time>
      </trkpt>
      <trkpt lat="42.4801066" lon="1.4609712">
        <ele>1161.4</ele>
        <time>2013-09-07T17:20:22Z</time>
      </trkpt>
      <trkpt lat="42.4801086" lon="1.4609881">
        <ele>1158.4</ele>
        <time>2013-09-07T17:20:31Z</time>
      </trkpt>
      <trkpt lat="42.4800547" lon="1.4609771">
        <ele>1155.8</ele>
        <time>2013-09-07T17:20:39Z</time>
      </trkpt>
      <trkpt lat="42.480006" lon="1.4610289">
        <ele>1153</ele>
        <time>2013-09-07T17:20:46Z</time>
      </trkpt>
      <trkpt lat="42.4799998" lon="1.4610964">
        <ele>1150</ele>
        <time>2013-09-07T17:20:52Z</time>
      </trkpt>
      <trkpt lat="42.4799533" lon="1.4611448">
        <ele>1146</ele>
        <time>2013-09-07T17:20:59Z</time>
      </trkpt>
      <trkpt lat="42.479943" lon="1.4611617">
        <ele>1145.4</ele>
        <time>2013-09-07T17:21:00Z</time>
      </trkpt>
      <trkpt lat="42.479919" lon="1.4611902">
        <ele>1143.6</ele>
        <time>2013-09-07T17:21:03Z</time>
      </trkpt>
      <trkpt lat="42.4799124" lon="1.4611978">
        <ele>1142.6</ele>
        <time>2013-09-07T17:21:05Z</time>
      </trkpt>
      <trkpt lat="42.479859" lon="1.4612432">
        <ele>1140.8</ele>
        <time>2013-09-07T17:21:09Z</time>
      </trkpt>
      <trkpt lat="42.47985" lon="1.4612562">
        <ele>1140.2</ele>
        <time>2013-09-07T17:21:10Z</time>
      </trkpt>
      <trkpt lat="42.4797957" lon="1.4613822">
        <ele>1137</ele>
        <time>2013-09-07T17:21:18Z</time>
      </trkpt>
      <trkpt lat="42.4797653" lon="1.4614981">
        <ele>1134.4</ele>
        <time>2013-09-07T17:21:25Z</time>
      </trkpt>
      <trkpt lat="42.4797509" lon="1.4615183">
        <ele>1134</ele>
        <time>2013-09-07T17:21:26Z</time>
      </trkpt>
      <trkpt lat="42.4797448" lon="1.4615467">
        <ele>1133.4</ele>
        <time>2013-09-07T17:21:28Z</time>
      </trkpt>
      <trkpt lat="42.4797441" lon="1.4615727">
        <ele>1132.8</ele>
        <time>2013-09-07T17:21:30Z</time>
      </trkpt>
      <trkpt lat="42.4797239" lon="1.4617227">
        <ele>1130.2</ele>
        <time>2013-09-07T17:21:38Z</time>
      </trkpt>
      <trkpt lat="42.4796703" lon="1.4618861">
        <ele>1127.8</ele>
        <time>2013-09-07T17:21:47Z</time>
      </trkpt>
      <trkpt lat="42.479607" lon="1.4619631">
        <ele>1126.2</ele>
        <time>2013-09-07T17:21:54Z</time>
      </trkpt>
      <trkpt lat="42.4795085" lon="1.4620037">
        <ele>1125.4</ele>
        <time>2013-09-07T17:22:00Z</time>
      </trkpt>
      <trkpt lat="42.4794827" lon="1.4620192">
        <ele>1125.4</ele>
        <time>2013-09-07T17:22:01Z</time>
      </trkpt>
      <trkpt lat="42.4794501" lon="1.4619907">
        <ele>1125.2</ele>
        <time>2013-09-07T17:22:03Z</time>
      </trkpt>
      <trkpt lat="42.4793969" lon="1.4619735">
        <ele>1124.8</ele>
        <time>2013-09-07T17:22:07Z</time>
      </trkpt>
      <trkpt lat="42.4793836" lon="1.4619672">
        <ele>1124.8</ele>
        <time>2013-09-07T17:22:08Z</time>
      </trkpt>
      <trkpt lat="42.4792932" lon="1.4619793">
        <ele>1124.8</ele>
        <time>2013-09-07T17:22:13Z</time>
      </trkpt>
      <trkpt lat="42.4792545" lon="1.4618923">
        <ele>1124.6</ele>
        <time>2013-09-07T17:22:18Z</time>
      </trkpt>
      <trkpt lat="42.4791794" lon="1.461892">
        <ele>1124</ele>
        <time>2013-09-07T17:22:26Z</time>
      </trkpt>
      <trkpt lat="42.4791414" lon="1.4619234">
        <ele>1123.4</ele>
        <time>2013-09-07T17:22:30Z</time>
      </trkpt>
      <trkpt lat="42.4791261" lon="1.4619436">
        <ele>1123.2</ele>
        <time>2013-09-07T17:22:32Z</time>
      </trkpt>
      <trkpt lat="42.4791032" lon="1.4619639">
        <ele>1122.6</ele>
        <time>2013-09-07T17:22:35Z</time>
      </trkpt>
      <trkpt lat="42.4790917" lon="1.4620013">
        <ele>1122.4</ele>
        <time>2013-09-07T17:22:37Z</time>
      </trkpt>
      <trkpt lat="42.479064" lon="1.4620448">
        <ele>1121.8</ele>
        <time>2013-09-07T17:22:41Z</time>
      </trkpt>
      <trkpt lat="42.4790111" lon="1.4621673">
        <ele>1120</ele>
        <time>2013-09-07T17:22:49Z</time>
      </trkpt>
      <trkpt lat="42.478941" lon="1.4622257">
        <ele>1118.4</ele>
        <time>2013-09-07T17:22:56Z</time>
      </trkpt>
      <trkpt lat="42.4789036" lon="1.4622261">
        <ele>1117.8</ele>
        <time>2013-09-07T17:22:59Z</time>
      </trkpt>
      <trkpt lat="42.4788905" lon="1.4622403">
        <ele>1117.6</ele>
        <time>2013-09-07T17:23:00Z</time>
      </trkpt>
      <trkpt lat="42.4788296" lon="1.4622934">
        <ele>1116</ele>
        <time>2013-09-07T17:23:08Z</time>
      </trkpt>
      <trkpt lat="42.4787395" lon="1.4623302">
        <ele>1115</ele>
        <time>2013-09-07T17:23:14Z</time>
      </trkpt>
      <trkpt lat="42.4786422" lon="1.4623505">
        <ele>1113.8</ele>
        <time>2013-09-07T17:23:21Z</time>
      </trkpt>
      <trkpt lat="42.4786115" lon="1.4623927">
        <ele>1113.2</ele>
        <time>2013-09-07T17:23:24Z</time>
      </trkpt>
      <trkpt lat="42.4785789" lon="1.4624388">
        <ele>1112.4</ele>
        <time>2013-09-07T17:23:28Z</time>
      </trkpt>
      <trkpt lat="42.4785433" lon="1.4624928">
        <ele>1111.6</ele>
        <time>2013-09-07T17:23:32Z</time>
      </trkpt>
      <trkpt lat="42.478495" lon="1.4625795">
        <ele>1109.8</ele>
        <time>2013-09-07T17:23:39Z</time>
      </trkpt>
      <trkpt lat="42.4784447" lon="1.4626907">
        <ele>1108</ele>
        <time>2013-09-07T17:23:46Z</time>
      </trkpt>
      <trkpt lat="42.4783955" lon="1.4628276">
        <ele>1106</ele>
        <time>2013-09-07T17:23:55Z</time>
      </trkpt>
      <trkpt lat="42.4783907" lon="1.4629106">
        <ele>1104.6</ele>
        <time>2013-09-07T17:24:00Z</time>
      </trkpt>
      <trkpt lat="42.4783893" lon="1.4629281">
        <ele>1104.4</ele>
        <time>2013-09-07T17:24:01Z</time>
      </trkpt>
      <trkpt lat="42.4783453" lon="1.4630283">
        <ele>1103.2</ele>
        <time>2013-09-07T17:24:09Z</time>
      </trkpt>
      <trkpt lat="42.4783225" lon="1.4631951">
        <ele>1102.2</ele>
        <time>2013-09-07T17:24:17Z</time>
      </trkpt>
      <trkpt lat="42.4783261" lon="1.463294">
        <ele>1101.6</ele>
        <time>2013-09-07T17:24:24Z</time>
      </trkpt>
      <trkpt lat="42.4783602" lon="1.4634243">
        <ele>1100.8</ele>
        <time>2013-09-07T17:24:32Z</time>
      </trkpt>
      <trkpt lat="42.478434" lon="1.4635246">
        <ele>1100.2</ele>
        <time>2013-09-07T17:24:40Z</time>
      </trkpt>
      <trkpt lat="42.4785411" lon="1.4635724">
        <ele>1098.8</ele>
        <time>2013-09-07T17:24:50Z</time>
      </trkpt>
      <trkpt lat="42.478655" lon="1.46364">
        <ele>1097.8</ele>
        <time>2013-09-07T17:24:58Z</time>
      </trkpt>
      <trkpt lat="42.4787529" lon="1.4637554">
        <ele>1096.6</ele>
        <time>2013-09-07T17:25:08Z</time>
      </trkpt>
      <trkpt lat="42.4788363" lon="1.4638215">
        <ele>1094.8</ele>
        <time>2013-09-07T17:25:19Z</time>
      </trkpt>
      <trkpt lat="42.4789701" lon="1.4638613">
        <ele>1094</ele>
        <time>2013-09-07T17:25:26Z</time>
      </trkpt>
      <trkpt lat="42.4790074" lon="1.4638453">
        <ele>1093.2</ele>
        <time>2013-09-07T17:25:31Z</time>
      </trkpt>
      <trkpt lat="42.4790446" lon="1.4638233">
        <ele>1092.4</ele>
        <time>2013-09-07T17:25:37Z</time>
      </trkpt>
      <trkpt lat="42.4791003" lon="1.4638087">
        <ele>1092</ele>
        <time>2013-09-07T17:25:42Z</time>
      </trkpt>
      <trkpt lat="42.4791477" lon="1.4638135">
        <ele>1092</ele>
        <time>2013-09-07T17:25:45Z</time>
      </trkpt>
      <trkpt lat="42.4791896" lon="1.4638256">
        <ele>1092</ele>
        <time>2013-09-07T17:25:48Z</time>
      </trkpt>
      <trkpt lat="42.4792263" lon="1.4638277">
        <ele>1092</ele>
        <time>2013-09-07T17:25:52Z</time>
      </trkpt>
      <trkpt lat="42.4792349" lon="1.4638271">
        <ele>1091.8</ele>
        <time>2013-09-07T17:25:53Z</time>
      </trkpt>
      <trkpt lat="42.4793478" lon="1.463875">
        <ele>1091.8</ele>
        <time>2013-09-07T17:25:59Z</time>
      </trkpt>
      <trkpt lat="42.4794476" lon="1.4639448">
        <ele>1091.8</ele>
        <time>2013-09-07T17:26:05Z</time>
      </trkpt>
      <trkpt lat="42.4796094" lon="1.4640744">
        <ele>1095</ele>
        <time>2013-09-07T17:26:12Z</time>
      </trkpt>
      <trkpt lat="42.4796359" lon="1.4641489">
        <ele>1096.4</ele>
        <time>2013-09-07T17:26:18Z</time>
      </trkpt>
      <trkpt lat="42.4796566" lon="1.4642973">
        <ele>1098</ele>
        <time>2013-09-07T17:26:26Z</time>
      </trkpt>
      <trkpt lat="42.4796113" lon="1.4644734">
        <ele>1099.4</ele>
        <time>2013-09-07T17:26:34Z</time>
      </trkpt>
      <trkpt lat="42.4795877" lon="1.4645869">
        <ele>1100.4</ele>
        <time>2013-09-07T17:26:41Z</time>
      </trkpt>
      <trkpt lat="42.4795859" lon="1.4646129">
        <ele>1100.4</ele>
        <time>2013-09-07T17:26:43Z</time>
      </trkpt>
      <trkpt lat="42.4795796" lon="1.464646">
        <ele>1100.2</ele>
        <time>2013-09-07T17:26:45Z</time>
      </trkpt>
      <trkpt lat="42.4795689" lon="1.4646942">
        <ele>1100.2</ele>
        <time>2013-09-07T17:26:48Z</time>
      </trkpt>
      <trkpt lat="42.4795316" lon="1.4648428">
        <ele>1099.4</ele>
        <time>2013-09-07T17:26:59Z</time>
      </trkpt>
      <trkpt lat="42.4794786" lon="1.4649904">
        <ele>1098.4</ele>
        <time>2013-09-07T17:27:09Z</time>
      </trkpt>
      <trkpt lat="42.4794488" lon="1.4651219">
        <ele>1096.8</ele>
        <time>2013-09-07T17:27:18Z</time>
      </trkpt>
      <trkpt lat="42.4793888" lon="1.465277">
        <ele>1095.2</ele>
        <time>2013-09-07T17:27:28Z</time>
      </trkpt>
      <trkpt lat="42.4792958" lon="1.4654092">
        <ele>1093.4</ele>
        <time>2013-09-07T17:27:38Z</time>
      </trkpt>
      <trkpt lat="42.4792045" lon="1.4654399">
        <ele>1092.6</ele>
        <time>2013-09-07T17:27:45Z</time>
      </trkpt>
      <trkpt lat="42.4790979" lon="1.4654515">
        <ele>1092.2</ele>
        <time>2013-09-07T17:27:53Z</time>
      </trkpt>
      <trkpt lat="42.4789741" lon="1.4654368">
        <ele>1093.4</ele>
        <time>2013-09-07T17:27:59Z</time>
      </trkpt>
      <trkpt lat="42.4788515" lon="1.4653815">
        <ele>1095.4</ele>
        <time>2013-09-07T17:28:07Z</time>
      </trkpt>
      <trkpt lat="42.4787154" lon="1.4652953">
        <ele>1099.2</ele>
        <time>2013-09-07T17:28:14Z</time>
      </trkpt>
      <trkpt lat="42.478639" lon="1.4652255">
        <ele>1102.2</ele>
        <time>2013-09-07T17:28:17Z</time>
      </trkpt>
      <trkpt lat="42.4785733" lon="1.4652028">
        <ele>1105.8</ele>
        <time>2013-09-07T17:28:20Z</time>
      </trkpt>
      <trkpt lat="42.4784386" lon="1.4652178">
        <ele>1113.6</ele>
        <time>2013-09-07T17:28:26Z</time>
      </trkpt>
      <trkpt lat="42.4783702" lon="1.4653362">
        <ele>1119</ele>
        <time>2013-09-07T17:28:32Z</time>
      </trkpt>
      <trkpt lat="42.478341" lon="1.4654823">
        <ele>1121.6</ele>
        <time>2013-09-07T17:28:39Z</time>
      </trkpt>
      <trkpt lat="42.4782598" lon="1.4655792">
        <ele>1122.8</ele>
        <time>2013-09-07T17:28:47Z</time>
      </trkpt>
      <trkpt lat="42.4782356" lon="1.4655965">
        <ele>1123</ele>
        <time>2013-09-07T17:28:52Z</time>
      </trkpt>
      <trkpt lat="42.4781786" lon="1.4655882">
        <ele>1121.8</ele>
        <time>2013-09-07T17:29:09Z</time>
      </trkpt>
      <trkpt lat="42.4781761" lon="1.4656198">
        <ele>1121.6</ele>
        <time>2013-09-07T17:29:12Z</time>
      </trkpt>
      <trkpt lat="42.478181" lon="1.4656328">
        <ele>1121.6</ele>
        <time>2013-09-07T17:29:13Z</time>
      </trkpt>
      <trkpt lat="42.47814" lon="1.4656217">
        <ele>1121.4</ele>
        <time>2013-09-07T17:29:18Z</time>
      </trkpt>
      <trkpt lat="42.4781308" lon="1.4656577">
        <ele>1121</ele>
        <time>2013-09-07T17:29:21Z</time>
      </trkpt>
      <trkpt lat="42.4780964" lon="1.4657846">
        <ele>1120.4</ele>
        <time>2013-09-07T17:29:28Z</time>
      </trkpt>
      <trkpt lat="42.4780814" lon="1.4658261">
        <ele>1120.2</ele>
        <time>2013-09-07T17:29:30Z</time>
      </trkpt>
      <trkpt lat="42.4780489" lon="1.4659006">
        <ele>1120</ele>
        <time>2013-09-07T17:29:34Z</time>
      </trkpt>
      <trkpt lat="42.4780072" lon="1.4660531">
        <ele>1119</ele>
        <time>2013-09-07T17:29:40Z</time>
      </trkpt>
      <trkpt lat="42.4780073" lon="1.4660571">
        <ele>1118.8</ele>
        <time>2013-09-07T17:29:41Z</time>
      </trkpt>
      <trkpt lat="42.4779993" lon="1.4661405">
        <ele>1118</ele>
        <time>2013-09-07T17:29:46Z</time>
      </trkpt>
      <trkpt lat="42.4779985" lon="1.466188">
        <ele>1117.8</ele>
        <time>2013-09-07T17:29:48Z</time>
      </trkpt>
      <trkpt lat="42.4779775" lon="1.4663177">
        <ele>1117</ele>
        <time>2013-09-07T17:29:53Z</time>
      </trkpt>
      <trkpt lat="42.4779966" lon="1.4663795">
        <ele>1116</ele>
        <time>2013-09-07T17:29:56Z</time>
      </trkpt>
      <trkpt lat="42.4780231" lon="1.4664834">
        <ele>1114.8</ele>
        <time>2013-09-07T17:30:00Z</time>
      </trkpt>
      <trkpt lat="42.4780677" lon="1.4665946">
        <ele>1112.2</ele>
        <time>2013-09-07T17:30:07Z</time>
      </trkpt>
      <trkpt lat="42.4781546" lon="1.4666512">
        <ele>1109.8</ele>
        <time>2013-09-07T17:30:14Z</time>
      </trkpt>
      <trkpt lat="42.4782308" lon="1.4667021">
        <ele>1107.6</ele>
        <time>2013-09-07T17:30:20Z</time>
      </trkpt>
      <trkpt lat="42.4783311" lon="1.4667704">
        <ele>1104.8</ele>
        <time>2013-09-07T17:30:28Z</time>
      </trkpt>
      <trkpt lat="42.4784877" lon="1.4667824">
        <ele>1102.4</ele>
        <time>2013-09-07T17:30:36Z</time>
      </trkpt>
      <trkpt lat="42.4785865" lon="1.4667919">
        <ele>1100.6</ele>
        <time>2013-09-07T17:30:43Z</time>
      </trkpt>
      <trkpt lat="42.4786408" lon="1.4668026">
        <ele>1098.6</ele>
        <time>2013-09-07T17:30:48Z</time>
      </trkpt>
      <trkpt lat="42.4786785" lon="1.4668682">
        <ele>1097</ele>
        <time>2013-09-07T17:30:54Z</time>
      </trkpt>
      <trkpt lat="42.4787792" lon="1.4668808">
        <ele>1095.4</ele>
        <time>2013-09-07T17:31:00Z</time>
      </trkpt>
      <trkpt lat="42.478861" lon="1.4669057">
        <ele>1093.8</ele>
        <time>2013-09-07T17:31:06Z</time>
      </trkpt>
      <trkpt lat="42.4789638" lon="1.4669414">
        <ele>1091.4</ele>
        <time>2013-09-07T17:31:14Z</time>
      </trkpt>
      <trkpt lat="42.4790492" lon="1.4670198">
        <ele>1088.6</ele>
        <time>2013-09-07T17:31:23Z</time>
      </trkpt>
      <trkpt lat="42.4791088" lon="1.4671184">
        <ele>1086</ele>
        <time>2013-09-07T17:31:31Z</time>
      </trkpt>
      <trkpt lat="42.4791277" lon="1.4672702">
        <ele>1083.6</ele>
        <time>2013-09-07T17:31:39Z</time>
      </trkpt>
      <trkpt lat="42.4791421" lon="1.4674059">
        <ele>1081.8</ele>
        <time>2013-09-07T17:31:47Z</time>
      </trkpt>
      <trkpt lat="42.4791584" lon="1.4674255">
        <ele>1080.2</ele>
        <time>2013-09-07T17:31:53Z</time>
      </trkpt>
      <trkpt lat="42.4791637" lon="1.4674991">
        <ele>1078.8</ele>
        <time>2013-09-07T17:31:59Z</time>
      </trkpt>
      <trkpt lat="42.4791341" lon="1.467676">
        <ele>1076.8</ele>
        <time>2013-09-07T17:32:09Z</time>
      </trkpt>
      <trkpt lat="42.4790716" lon="1.4678166">
        <ele>1075</ele>
        <time>2013-09-07T17:32:19Z</time>
      </trkpt>
      <trkpt lat="42.4789898" lon="1.4679026">
        <ele>1073.8</ele>
        <time>2013-09-07T17:32:28Z</time>
      </trkpt>
      <trkpt lat="42.4788612" lon="1.4679799">
        <ele>1073</ele>
        <time>2013-09-07T17:32:39Z</time>
      </trkpt>
      <trkpt lat="42.4788519" lon="1.4679644">
        <ele>1073</ele>
        <time>2013-09-07T17:32:41Z</time>
      </trkpt>
      <trkpt lat="42.4788335" lon="1.4679641">
        <ele>1072.8</ele>
        <time>2013-09-07T17:32:43Z</time>
      </trkpt>
      <trkpt lat="42.4787396" lon="1.4680341">
        <ele>1073.8</ele>
        <time>2013-09-07T17:32:49Z</time>
      </trkpt>
      <trkpt lat="42.4786882" lon="1.4680716">
        <ele>1074.2</ele>
        <time>2013-09-07T17:32:55Z</time>
      </trkpt>
      <trkpt lat="42.4786142" lon="1.468168">
        <ele>1075</ele>
        <time>2013-09-07T17:33:02Z</time>
      </trkpt>
      <trkpt lat="42.4785499" lon="1.4682435">
        <ele>1075.4</ele>
        <time>2013-09-07T17:33:10Z</time>
      </trkpt>
      <trkpt lat="42.4784848" lon="1.4682931">
        <ele>1077.4</ele>
        <time>2013-09-07T17:33:15Z</time>
      </trkpt>
      <trkpt lat="42.4784209" lon="1.4683">
        <ele>1079.8</ele>
        <time>2013-09-07T17:33:22Z</time>
      </trkpt>
      <trkpt lat="42.4783952" lon="1.4684244">
        <ele>1081.6</ele>
        <time>2013-09-07T17:33:30Z</time>
      </trkpt>
      <trkpt lat="42.478331" lon="1.468488">
        <ele>1081.4</ele>
        <time>2013-09-07T17:33:39Z</time>
      </trkpt>
      <trkpt lat="42.4782785" lon="1.4685255">
        <ele>1081</ele>
        <time>2013-09-07T17:33:46Z</time>
      </trkpt>
      <trkpt lat="42.4782696" lon="1.4685449">
        <ele>1080.4</ele>
        <time>2013-09-07T17:33:53Z</time>
      </trkpt>
      <trkpt lat="42.4782243" lon="1.4685523">
        <ele>1079.8</ele>
        <time>2013-09-07T17:34:00Z</time>
      </trkpt>
      <trkpt lat="42.4781867" lon="1.468578">
        <ele>1079.2</ele>
        <time>2013-09-07T17:34:04Z</time>
      </trkpt>
      <trkpt lat="42.4781684" lon="1.4685815">
        <ele>1079</ele>
        <time>2013-09-07T17:34:05Z</time>
      </trkpt>
      <trkpt lat="42.4781311" lon="1.4685134">
        <ele>1078.8</ele>
        <time>2013-09-07T17:34:13Z</time>
      </trkpt>
      <trkpt lat="42.4780699" lon="1.4685197">
        <ele>1079.6</ele>
        <time>2013-09-07T17:34:17Z</time>
      </trkpt>
      <trkpt lat="42.4779805" lon="1.4685577">
        <ele>1083.2</ele>
        <time>2013-09-07T17:34:24Z</time>
      </trkpt>
      <trkpt lat="42.4779576" lon="1.4687026">
        <ele>1084.6</ele>
        <time>2013-09-07T17:34:31Z</time>
      </trkpt>
      <trkpt lat="42.4779368" lon="1.4687821">
        <ele>1084.8</ele>
        <time>2013-09-07T17:34:37Z</time>
      </trkpt>
      <trkpt lat="42.477942" lon="1.4688158">
        <ele>1085</ele>
        <time>2013-09-07T17:34:39Z</time>
      </trkpt>
      <trkpt lat="42.4779301" lon="1.4688438">
        <ele>1085.2</ele>
        <time>2013-09-07T17:34:41Z</time>
      </trkpt>
      <trkpt lat="42.4779096" lon="1.4688493">
        <ele>1085</ele>
        <time>2013-09-07T17:34:43Z</time>
      </trkpt>
      <trkpt lat="42.477873" lon="1.4688746">
        <ele>1085</ele>
        <time>2013-09-07T17:34:47Z</time>
      </trkpt>
      <trkpt lat="42.4778676" lon="1.4689108">
        <ele>1085.2</ele>
        <time>2013-09-07T17:34:49Z</time>
      </trkpt>
      <trkpt lat="42.4778535" lon="1.4690033">
        <ele>1085.4</ele>
        <time>2013-09-07T17:34:55Z</time>
      </trkpt>
      <trkpt lat="42.4778521" lon="1.4690159">
        <ele>1085.2</ele>
        <time>2013-09-07T17:34:56Z</time>
      </trkpt>
      <trkpt lat="42.4778521" lon="1.4690879">
        <ele>1085.2</ele>
        <time>2013-09-07T17:35:00Z</time>
      </trkpt>
      <trkpt lat="42.4778279" lon="1.4691545">
        <ele>1085.2</ele>
        <time>2013-09-07T17:35:04Z</time>
      </trkpt>
      <trkpt lat="42.4778359" lon="1.4692831">
        <ele>1084.8</ele>
        <time>2013-09-07T17:35:11Z</time>
      </trkpt>
      <trkpt lat="42.4778717" lon="1.4694002">
        <ele>1084.4</ele>
        <time>2013-09-07T17:35:19Z</time>
      </trkpt>
      <trkpt lat="42.4778998" lon="1.4695423">
        <ele>1084</ele>
        <time>2013-09-07T17:35:26Z</time>
      </trkpt>
      <trkpt lat="42.477935" lon="1.469661">
        <ele>1083.2</ele>
        <time>2013-09-07T17:35:35Z</time>
      </trkpt>
      <trkpt lat="42.477929" lon="1.469762">
        <ele>1082.6</ele>
        <time>2013-09-07T17:35:41Z</time>
      </trkpt>
      <trkpt lat="42.4779172" lon="1.4698415">
        <ele>1082.2</ele>
        <time>2013-09-07T17:35:45Z</time>
      </trkpt>
      <trkpt lat="42.4778929" lon="1.4699397">
        <ele>1081.8</ele>
        <time>2013-09-07T17:35:51Z</time>
      </trkpt>
      <trkpt lat="42.4778931" lon="1.4699498">
        <ele>1081.6</ele>
        <time>2013-09-07T17:35:52Z</time>
      </trkpt>
      <trkpt lat="42.4779117" lon="1.4700093">
        <ele>1080.4</ele>
        <time>2013-09-07T17:35:58Z</time>
      </trkpt>
      <trkpt lat="42.4779078" lon="1.4700489">
        <ele>1079.8</ele>
        <time>2013-09-07T17:36:00Z</time>
      </trkpt>
      <trkpt lat="42.477911" lon="1.4701392">
        <ele>1078.6</ele>
        <time>2013-09-07T17:36:06Z</time>
      </trkpt>
      <trkpt lat="42.477898" lon="1.4702423">
        <ele>1077</ele>
        <time>2013-09-07T17:36:13Z</time>
      </trkpt>
      <trkpt lat="42.4778819" lon="1.470281">
        <ele>1076.2</ele>
        <time>2013-09-07T17:36:16Z</time>
      </trkpt>
      <trkpt lat="42.4778511" lon="1.4703022">
        <ele>1075.8</ele>
        <time>2013-09-07T17:36:19Z</time>
      </trkpt>
      <trkpt lat="42.4778209" lon="1.4703194">
        <ele>1075.2</ele>
        <time>2013-09-07T17:36:22Z</time>
      </trkpt>
      <trkpt lat="42.477807" lon="1.4703468">
        <ele>1074.8</ele>
        <time>2013-09-07T17:36:25Z</time>
      </trkpt>
      <trkpt lat="42.4778046" lon="1.4703601">
        <ele>1074.8</ele>
        <time>2013-09-07T17:36:26Z</time>
      </trkpt>
      <trkpt lat="42.477805" lon="1.4704778">
        <ele>1073.8</ele>
        <time>2013-09-07T17:36:33Z</time>
      </trkpt>
      <trkpt lat="42.4777964" lon="1.4705757">
        <ele>1073</ele>
        <time>2013-09-07T17:36:39Z</time>
      </trkpt>
      <trkpt lat="42.4777996" lon="1.4706082">
        <ele>1072.8</ele>
        <time>2013-09-07T17:36:41Z</time>
      </trkpt>
      <trkpt lat="42.4778236" lon="1.4706601">
        <ele>1072.4</ele>
        <time>2013-09-07T17:36:45Z</time>
      </trkpt>
      <trkpt lat="42.477836" lon="1.4707782">
        <ele>1071.6</ele>
        <time>2013-09-07T17:36:53Z</time>
      </trkpt>
      <trkpt lat="42.4778207" lon="1.4708715">
        <ele>1070.8</ele>
        <time>2013-09-07T17:36:59Z</time>
      </trkpt>
      <trkpt lat="42.4778251" lon="1.4708849">
        <ele>1070.6</ele>
        <time>2013-09-07T17:37:00Z</time>
      </trkpt>
      <trkpt lat="42.4778526" lon="1.4710467">
        <ele>1069.6</ele>
        <time>2013-09-07T17:37:09Z</time>
      </trkpt>
      <trkpt lat="42.4778551" lon="1.4711313">
        <ele>1068.6</ele>
        <time>2013-09-07T17:37:18Z</time>
      </trkpt>
      <trkpt lat="42.4778773" lon="1.4711761">
        <ele>1067.8</ele>
        <time>2013-09-07T17:37:24Z</time>
      </trkpt>
      <trkpt lat="42.477906" lon="1.4712833">
        <ele>1066.6</ele>
        <time>2013-09-07T17:37:31Z</time>
      </trkpt>
      <trkpt lat="42.4778926" lon="1.4714002">
        <ele>1065.6</ele>
        <time>2013-09-07T17:37:37Z</time>
      </trkpt>
      <trkpt lat="42.4778749" lon="1.4715966">
        <ele>1064.2</ele>
        <time>2013-09-07T17:37:46Z</time>
      </trkpt>
      <trkpt lat="42.4779531" lon="1.4717322">
        <ele>1062.6</ele>
        <time>2013-09-07T17:37:55Z</time>
      </trkpt>
      <trkpt lat="42.4780002" lon="1.4718327">
        <ele>1061.4</ele>
        <time>2013-09-07T17:38:02Z</time>
      </trkpt>
      <trkpt lat="42.4780352" lon="1.4718664">
        <ele>1060.6</ele>
        <time>2013-09-07T17:38:06Z</time>
      </trkpt>
      <trkpt lat="42.4780553" lon="1.4718802">
        <ele>1060.2</ele>
        <time>2013-09-07T17:38:08Z</time>
      </trkpt>
      <trkpt lat="42.4780919" lon="1.4719123">
        <ele>1059.6</ele>
        <time>2013-09-07T17:38:12Z</time>
      </trkpt>
      <trkpt lat="42.478171" lon="1.4719859">
        <ele>1058.4</ele>
        <time>2013-09-07T17:38:20Z</time>
      </trkpt>
      <trkpt lat="42.4782159" lon="1.4720133">
        <ele>1058.2</ele>
        <time>2013-09-07T17:38:26Z</time>
      </trkpt>
      <trkpt lat="42.4782132" lon="1.4720574">
        <ele>1058</ele>
        <time>2013-09-07T17:38:29Z</time>
      </trkpt>
      <trkpt lat="42.4781998" lon="1.4720918">
        <ele>1057.8</ele>
        <time>2013-09-07T17:38:31Z</time>
      </trkpt>
      <trkpt lat="42.4781482" lon="1.472163">
        <ele>1057.2</ele>
        <time>2013-09-07T17:38:35Z</time>
      </trkpt>
      <trkpt lat="42.478094" lon="1.472208">
        <ele>1056.6</ele>
        <time>2013-09-07T17:38:39Z</time>
      </trkpt>
      <trkpt lat="42.478047" lon="1.4722251">
        <ele>1056.2</ele>
        <time>2013-09-07T17:38:42Z</time>
      </trkpt>
      <trkpt lat="42.4779557" lon="1.4722589">
        <ele>1055</ele>
        <time>2013-09-07T17:38:50Z</time>
      </trkpt>
      <trkpt lat="42.4778998" lon="1.4722915">
        <ele>1053.6</ele>
        <time>2013-09-07T17:38:58Z</time>
      </trkpt>
      <trkpt lat="42.477834" lon="1.472338">
        <ele>1052.2</ele>
        <time>2013-09-07T17:39:05Z</time>
      </trkpt>
      <trkpt lat="42.4778502" lon="1.4723644">
        <ele>1051.6</ele>
        <time>2013-09-07T17:39:09Z</time>
      </trkpt>
      <trkpt lat="42.4778153" lon="1.4723841">
        <ele>1050.8</ele>
        <time>2013-09-07T17:39:13Z</time>
      </trkpt>
      <trkpt lat="42.4778096" lon="1.4723893">
        <ele>1050.6</ele>
        <time>2013-09-07T17:39:14Z</time>
      </trkpt>
      <trkpt lat="42.4777957" lon="1.4724215">
        <ele>1049.8</ele>
        <time>2013-09-07T17:39:18Z</time>
      </trkpt>
      <trkpt lat="42.4777628" lon="1.4724586">
        <ele>1049.2</ele>
        <time>2013-09-07T17:39:22Z</time>
      </trkpt>
      <trkpt lat="42.4776718" lon="1.4724761">
        <ele>1048.6</ele>
        <time>2013-09-07T17:39:28Z</time>
      </trkpt>
      <trkpt lat="42.4776532" lon="1.4724892">
        <ele>1048.4</ele>
        <time>2013-09-07T17:39:29Z</time>
      </trkpt>
      <trkpt lat="42.4776263" lon="1.4725168">
        <ele>1048.2</ele>
        <time>2013-09-07T17:39:32Z</time>
      </trkpt>
      <trkpt lat="42.4776041" lon="1.472549">
        <ele>1048</ele>
        <time>2013-09-07T17:39:35Z</time>
      </trkpt>
      <trkpt lat="42.4775818" lon="1.4726273">
        <ele>1047.2</ele>
        <time>2013-09-07T17:39:41Z</time>
      </trkpt>
      <trkpt lat="42.4775805" lon="1.4726442">
        <ele>1047.2</ele>
        <time>2013-09-07T17:39:42Z</time>
      </trkpt>
      <trkpt lat="42.4775536" lon="1.4727618">
        <ele>1046.4</ele>
        <time>2013-09-07T17:39:49Z</time>
      </trkpt>
      <trkpt lat="42.477525" lon="1.4728799">
        <ele>1045.4</ele>
        <time>2013-09-07T17:39:57Z</time>
      </trkpt>
      <trkpt lat="42.4775075" lon="1.4729145">
        <ele>1045</ele>
        <time>2013-09-07T17:40:00Z</time>
      </trkpt>
      <trkpt lat="42.4774804" lon="1.4729674">
        <ele>1044.6</ele>
        <time>2013-09-07T17:40:04Z</time>
      </trkpt>
      <trkpt lat="42.4774667" lon="1.4729909">
        <ele>1044.2</ele>
        <time>2013-09-07T17:40:06Z</time>
      </trkpt>
      <trkpt lat="42.4774518" lon="1.4730116">
        <ele>1044</ele>
        <time>2013-09-07T17:40:08Z</time>
      </trkpt>
      <trkpt lat="42.4774315" lon="1.4730404">
        <ele>1043.4</ele>
        <time>2013-09-07T17:40:11Z</time>
      </trkpt>
      <trkpt lat="42.4773554" lon="1.4731186">
        <ele>1042.4</ele>
        <time>2013-09-07T17:40:19Z</time>
      </trkpt>
      <trkpt lat="42.477283" lon="1.4731382">
        <ele>1042</ele>
        <time>2013-09-07T17:40:24Z</time>
      </trkpt>
      <trkpt lat="42.47727" lon="1.4731663">
        <ele>1042</ele>
        <time>2013-09-07T17:40:26Z</time>
      </trkpt>
      <trkpt lat="42.4772356" lon="1.473253">
        <ele>1041.8</ele>
        <time>2013-09-07T17:40:31Z</time>
      </trkpt>
      <trkpt lat="42.4771746" lon="1.4733513">
        <ele>1041</ele>
        <time>2013-09-07T17:40:39Z</time>
      </trkpt>
      <trkpt lat="42.4771223" lon="1.4734809">
        <ele>1040.4</ele>
        <time>2013-09-07T17:40:47Z</time>
      </trkpt>
      <trkpt lat="42.4771185" lon="1.4736665">
        <ele>1040.4</ele>
        <time>2013-09-07T17:40:55Z</time>
      </trkpt>
      <trkpt lat="42.4770987" lon="1.4737876">
        <ele>1041.6</ele>
        <time>2013-09-07T17:41:02Z</time>
      </trkpt>
      <trkpt lat="42.4770798" lon="1.4738901">
        <ele>1041</ele>
        <time>2013-09-07T17:41:10Z</time>
      </trkpt>
      <trkpt lat="42.4771114" lon="1.4740405">
        <ele>1040.4</ele>
        <time>2013-09-07T17:41:19Z</time>
      </trkpt>
      <trkpt lat="42.4771953" lon="1.4742496">
        <ele>1041.2</ele>
        <time>2013-09-07T17:41:29Z</time>
      </trkpt>
      <trkpt lat="42.4772883" lon="1.4745363">
        <ele>1050.4</ele>
        <time>2013-09-07T17:41:39Z</time>
      </trkpt>
      <trkpt lat="42.4773472" lon="1.4747848">
        <ele>1061.4</ele>
        <time>2013-09-07T17:41:47Z</time>
      </trkpt>
      <trkpt lat="42.4773279" lon="1.4749205">
        <ele>1069.6</ele>
        <time>2013-09-07T17:41:54Z</time>
      </trkpt>
      <trkpt lat="42.4773426" lon="1.4750187">
        <ele>1076.2</ele>
        <time>2013-09-07T17:42:03Z</time>
      </trkpt>
      <trkpt lat="42.4773255" lon="1.4751143">
        <ele>1077.2</ele>
        <time>2013-09-07T17:42:12Z</time>
      </trkpt>
      <trkpt lat="42.4773099" lon="1.4751871">
        <ele>1075.8</ele>
        <time>2013-09-07T17:42:21Z</time>
      </trkpt>
      <trkpt lat="42.4772825" lon="1.4752692">
        <ele>1072.2</ele>
        <time>2013-09-07T17:42:30Z</time>
      </trkpt>
      <trkpt lat="42.4772631" lon="1.4753813">
        <ele>1068</ele>
        <time>2013-09-07T17:42:40Z</time>
      </trkpt>
      <trkpt lat="42.4772599" lon="1.4754007">
        <ele>1065.4</ele>
        <time>2013-09-07T17:42:45Z</time>
      </trkpt>
      <trkpt lat="42.4772548" lon="1.4754341">
        <ele>1064</ele>
        <time>2013-09-07T17:42:48Z</time>
      </trkpt>
      <trkpt lat="42.4772486" lon="1.4755017">
        <ele>1061.8</ele>
        <time>2013-09-07T17:42:53Z</time>
      </trkpt>
      <trkpt lat="42.4772128" lon="1.4755979">
        <ele>1058.2</ele>
        <time>2013-09-07T17:43:01Z</time>
      </trkpt>
      <trkpt lat="42.4771676" lon="1.475702">
        <ele>1054.6</ele>
        <time>2013-09-07T17:43:09Z</time>
      </trkpt>
      <trkpt lat="42.4771224" lon="1.47582">
        <ele>1051.2</ele>
        <time>2013-09-07T17:43:17Z</time>
      </trkpt>
      <trkpt lat="42.4770874" lon="1.4759432">
        <ele>1048</ele>
        <time>2013-09-07T17:43:25Z</time>
      </trkpt>
      <trkpt lat="42.4770519" lon="1.4760712">
        <ele>1044.8</ele>
        <time>2013-09-07T17:43:33Z</time>
      </trkpt>
      <trkpt lat="42.4770344" lon="1.4761987">
        <ele>1042.2</ele>
        <time>2013-09-07T17:43:40Z</time>
      </trkpt>
      <trkpt lat="42.4770393" lon="1.4762389">
        <ele>1040.2</ele>
        <time>2013-09-07T17:43:46Z</time>
      </trkpt>
      <trkpt lat="42.4770178" lon="1.4762837">
        <ele>1038.6</ele>
        <time>2013-09-07T17:43:51Z</time>
      </trkpt>
      <trkpt lat="42.4769906" lon="1.4763929">
        <ele>1036.4</ele>
        <time>2013-09-07T17:43:58Z</time>
      </trkpt>
      <trkpt lat="42.4769785" lon="1.4764457">
        <ele>1035.6</ele>
        <time>2013-09-07T17:44:01Z</time>
      </trkpt>
      <trkpt lat="42.4769729" lon="1.4764756">
        <ele>1035</ele>
        <time>2013-09-07T17:44:03Z</time>
      </trkpt>
      <trkpt lat="42.4769572" lon="1.4764846">
        <ele>1033.4</ele>
        <time>2013-09-07T17:44:08Z</time>
      </trkpt>
      <trkpt lat="42.4769341" lon="1.4765354">
        <ele>1030.2</ele>
        <time>2013-09-07T17:44:19Z</time>
      </trkpt>
      <trkpt lat="42.4769104" lon="1.4766423">
        <ele>1028</ele>
        <time>2013-09-07T17:44:27Z</time>
      </trkpt>
      <trkpt lat="42.4769091" lon="1.4767714">
        <ele>1026</ele>
        <time>2013-09-07T17:44:35Z</time>
      </trkpt>
      <trkpt lat="42.4769601" lon="1.4769672">
        <ele>1024.6</ele>
        <time>2013-09-07T17:44:43Z</time>
      </trkpt>
      <trkpt lat="42.4770124" lon="1.4771301">
        <ele>1024.4</ele>
        <time>2013-09-07T17:44:50Z</time>
      </trkpt>
      <trkpt lat="42.4770934" lon="1.4773492">
        <ele>1028</ele>
        <time>2013-09-07T17:44:59Z</time>
      </trkpt>
      <trkpt lat="42.4771182" lon="1.477408">
        <ele>1030.2</ele>
        <time>2013-09-07T17:45:06Z</time>
      </trkpt>
      <trkpt lat="42.4771134" lon="1.477415">
        <ele>1031.6</ele>
        <time>2013-09-07T17:45:11Z</time>
      </trkpt>
      <trkpt lat="42.4771202" lon="1.4774375">
        <ele>1032</ele>
        <time>2013-09-07T17:45:12Z</time>
      </trkpt>
      <trkpt lat="42.4771529" lon="1.4775308">
        <ele>1032.6</ele>
        <time>2013-09-07T17:45:20Z</time>
      </trkpt>
      <trkpt lat="42.4771879" lon="1.4776772">
        <ele>1033.2</ele>
        <time>2013-09-07T17:45:29Z</time>
      </trkpt>
      <trkpt lat="42.4771879" lon="1.4777367">
        <ele>1032.8</ele>
        <time>2013-09-07T17:45:34Z</time>
      </trkpt>
      <trkpt lat="42.4772297" lon="1.4777673">
        <ele>1033.6</ele>
        <time>2013-09-07T17:45:41Z</time>
      </trkpt>
      <trkpt lat="42.4772751" lon="1.4777693">
        <ele>1035.2</ele>
        <time>2013-09-07T17:45:52Z</time>
      </trkpt>
      <trkpt lat="42.4773221" lon="1.4778879">
        <ele>1037</ele>
        <time>2013-09-07T17:46:00Z</time>
      </trkpt>
      <trkpt lat="42.4773807" lon="1.4779948">
        <ele>1039.8</ele>
        <time>2013-09-07T17:46:07Z</time>
      </trkpt>
      <trkpt lat="42.4774552" lon="1.4780934">
        <ele>1042.8</ele>
        <time>2013-09-07T17:46:14Z</time>
      </trkpt>
      <trkpt lat="42.477514" lon="1.4781772">
        <ele>1045.6</ele>
        <time>2013-09-07T17:46:21Z</time>
      </trkpt>
      <trkpt lat="42.4775672" lon="1.4782914">
        <ele>1048.4</ele>
        <time>2013-09-07T17:46:29Z</time>
      </trkpt>
      <trkpt lat="42.4776262" lon="1.4784386">
        <ele>1051</ele>
        <time>2013-09-07T17:46:38Z</time>
      </trkpt>
      <trkpt lat="42.4776646" lon="1.478578">
        <ele>1051.6</ele>
        <time>2013-09-07T17:46:48Z</time>
      </trkpt>
      <trkpt lat="42.4776827" lon="1.4786766">
        <ele>1052</ele>
        <time>2013-09-07T17:46:54Z</time>
      </trkpt>
      <trkpt lat="42.4777157" lon="1.4787585">
        <ele>1053.6</ele>
        <time>2013-09-07T17:46:58Z</time>
      </trkpt>
      <trkpt lat="42.4777527" lon="1.4788504">
        <ele>1055</ele>
        <time>2013-09-07T17:47:05Z</time>
      </trkpt>
      <trkpt lat="42.4777842" lon="1.4789724">
        <ele>1055</ele>
        <time>2013-09-07T17:47:16Z</time>
      </trkpt>
      <trkpt lat="42.477786" lon="1.4789526">
        <ele>1053.8</ele>
        <time>2013-09-07T17:47:22Z</time>
      </trkpt>
      <trkpt lat="42.477777" lon="1.4789861">
        <ele>1051.2</ele>
        <time>2013-09-07T17:47:29Z</time>
      </trkpt>
      <trkpt lat="42.4777669" lon="1.4790704">
        <ele>1048.8</ele>
        <time>2013-09-07T17:47:35Z</time>
      </trkpt>
      <trkpt lat="42.4777556" lon="1.4791948">
        <ele>1044.6</ele>
        <time>2013-09-07T17:47:44Z</time>
      </trkpt>
      <trkpt lat="42.477733" lon="1.4793145">
        <ele>1040.4</ele>
        <time>2013-09-07T17:47:52Z</time>
      </trkpt>
      <trkpt lat="42.4777081" lon="1.4794426">
        <ele>1036</ele>
        <time>2013-09-07T17:48:00Z</time>
      </trkpt>
      <trkpt lat="42.4776886" lon="1.479572">
        <ele>1031.6</ele>
        <time>2013-09-07T17:48:08Z</time>
      </trkpt>
      <trkpt lat="42.4776839" lon="1.4796264">
        <ele>1030</ele>
        <time>2013-09-07T17:48:11Z</time>
      </trkpt>
      <trkpt lat="42.4776767" lon="1.4796638">
        <ele>1027.8</ele>
        <time>2013-09-07T17:48:15Z</time>
      </trkpt>
      <trkpt lat="42.4776434" lon="1.4797551">
        <ele>1024</ele>
        <time>2013-09-07T17:48:22Z</time>
      </trkpt>
      <trkpt lat="42.4776402" lon="1.479926">
        <ele>1019.8</ele>
        <time>2013-09-07T17:48:31Z</time>
      </trkpt>
      <trkpt lat="42.4776187" lon="1.4799529">
        <ele>1017.4</ele>
        <time>2013-09-07T17:48:37Z</time>
      </trkpt>
      <trkpt lat="42.4776112" lon="1.4800794">
        <ele>1014.4</ele>
        <time>2013-09-07T17:48:45Z</time>
      </trkpt>
      <trkpt lat="42.4775706" lon="1.480166">
        <ele>1012.2</ele>
        <time>2013-09-07T17:48:52Z</time>
      </trkpt>
      <trkpt lat="42.4775021" lon="1.4802335">
        <ele>1010.8</ele>
        <time>2013-09-07T17:48:58Z</time>
      </trkpt>
      <trkpt lat="42.4774914" lon="1.4802702">
        <ele>1010.6</ele>
        <time>2013-09-07T17:49:00Z</time>
      </trkpt>
      <trkpt lat="42.4774368" lon="1.480267">
        <ele>1009.8</ele>
        <time>2013-09-07T17:49:04Z</time>
      </trkpt>
      <trkpt lat="42.4773986" lon="1.4803107">
        <ele>1008.8</ele>
        <time>2013-09-07T17:49:10Z</time>
      </trkpt>
      <trkpt lat="42.4773636" lon="1.4803597">
        <ele>1007.8</ele>
        <time>2013-09-07T17:49:16Z</time>
      </trkpt>
      <trkpt lat="42.4773477" lon="1.4803743">
        <ele>1007.4</ele>
        <time>2013-09-07T17:49:18Z</time>
      </trkpt>
      <trkpt lat="42.4772968" lon="1.48041">
        <ele>1006.6</ele>
        <time>2013-09-07T17:49:23Z</time>
      </trkpt>
      <trkpt lat="42.477215" lon="1.4804222">
        <ele>1005.6</ele>
        <time>2013-09-07T17:49:30Z</time>
      </trkpt>
      <trkpt lat="42.4770575" lon="1.480322">
        <ele>1006.6</ele>
        <time>2013-09-07T17:49:37Z</time>
      </trkpt>
      <trkpt lat="42.4768741" lon="1.4802561">
        <ele>1010</ele>
        <time>2013-09-07T17:49:43Z</time>
      </trkpt>
      <trkpt lat="42.4767621" lon="1.4802793">
        <ele>1013.4</ele>
        <time>2013-09-07T17:49:49Z</time>
      </trkpt>
      <trkpt lat="42.4766498" lon="1.4803185">
        <ele>1017.4</ele>
        <time>2013-09-07T17:49:57Z</time>
      </trkpt>
      <trkpt lat="42.4766205" lon="1.480319">
        <ele>1019</ele>
        <time>2013-09-07T17:50:00Z</time>
      </trkpt>
      <trkpt lat="42.476603" lon="1.4803588">
        <ele>1020</ele>
        <time>2013-09-07T17:50:03Z</time>
      </trkpt>
      <trkpt lat="42.4765298" lon="1.4804795">
        <ele>1020.4</ele>
        <time>2013-09-07T17:50:11Z</time>
      </trkpt>
      <trkpt lat="42.4764667" lon="1.4805881">
        <ele>1020</ele>
        <time>2013-09-07T17:50:19Z</time>
      </trkpt>
      <trkpt lat="42.4763774" lon="1.4806246">
        <ele>1019.6</ele>
        <time>2013-09-07T17:50:25Z</time>
      </trkpt>
      <trkpt lat="42.4763595" lon="1.4806273">
        <ele>1019.6</ele>
        <time>2013-09-07T17:50:26Z</time>
      </trkpt>
      <trkpt lat="42.4763554" lon="1.4806728">
        <ele>1019.2</ele>
        <time>2013-09-07T17:50:29Z</time>
      </trkpt>
      <trkpt lat="42.4763132" lon="1.4807344">
        <ele>1018.6</ele>
        <time>2013-09-07T17:50:35Z</time>
      </trkpt>
      <trkpt lat="42.4762792" lon="1.4807599">
        <ele>1018.4</ele>
        <time>2013-09-07T17:50:38Z</time>
      </trkpt>
      <trkpt lat="42.4762286" lon="1.4807785">
        <ele>1018.2</ele>
        <time>2013-09-07T17:50:41Z</time>
      </trkpt>
      <trkpt lat="42.4761681" lon="1.4808195">
        <ele>1017.8</ele>
        <time>2013-09-07T17:50:48Z</time>
      </trkpt>
      <trkpt lat="42.4761495" lon="1.4808265">
        <ele>1017.6</ele>
        <time>2013-09-07T17:50:50Z</time>
      </trkpt>
      <trkpt lat="42.4761094" lon="1.4808528">
        <ele>1017.4</ele>
        <time>2013-09-07T17:50:54Z</time>
      </trkpt>
      <trkpt lat="42.47607" lon="1.4808893">
        <ele>1017.4</ele>
        <time>2013-09-07T17:50:59Z</time>
      </trkpt>
      <trkpt lat="42.4760642" lon="1.4808872">
        <ele>1017.2</ele>
        <time>2013-09-07T17:51:01Z</time>
      </trkpt>
      <trkpt lat="42.4760704" lon="1.4808933">
        <ele>1017.2</ele>
        <time>2013-09-07T17:51:04Z</time>
      </trkpt>
      <trkpt lat="42.476067" lon="1.4808996">
        <ele>1017.8</ele>
        <time>2013-09-07T17:51:06Z</time>
      </trkpt>
      <trkpt lat="42.4759781" lon="1.4810199">
        <ele>1017.2</ele>
        <time>2013-09-07T17:51:14Z</time>
      </trkpt>
      <trkpt lat="42.4758717" lon="1.4811165">
        <ele>1016.4</ele>
        <time>2013-09-07T17:51:21Z</time>
      </trkpt>
      <trkpt lat="42.4759" lon="1.4812234">
        <ele>1015.4</ele>
        <time>2013-09-07T17:51:25Z</time>
      </trkpt>
      <trkpt lat="42.4759163" lon="1.4812754">
        <ele>1015</ele>
        <time>2013-09-07T17:51:27Z</time>
      </trkpt>
      <trkpt lat="42.4760007" lon="1.4814929">
        <ele>1012.6</ele>
        <time>2013-09-07T17:51:35Z</time>
      </trkpt>
      <trkpt lat="42.4760454" lon="1.4816756">
        <ele>1010.2</ele>
        <time>2013-09-07T17:51:42Z</time>
      </trkpt>
      <trkpt lat="42.476046" lon="1.4817893">
        <ele>1008.2</ele>
        <time>2013-09-07T17:51:48Z</time>
      </trkpt>
      <trkpt lat="42.4760132" lon="1.4817979">
        <ele>1006.2</ele>
        <time>2013-09-07T17:51:53Z</time>
      </trkpt>
      <trkpt lat="42.4759278" lon="1.4818251">
        <ele>1004.2</ele>
        <time>2013-09-07T17:51:59Z</time>
      </trkpt>
      <trkpt lat="42.4757272" lon="1.4818276">
        <ele>1002.8</ele>
        <time>2013-09-07T17:52:05Z</time>
      </trkpt>
      <trkpt lat="42.4756247" lon="1.4819486">
        <ele>1002</ele>
        <time>2013-09-07T17:52:12Z</time>
      </trkpt>
      <trkpt lat="42.4756627" lon="1.4820417">
        <ele>1001.2</ele>
        <time>2013-09-07T17:52:17Z</time>
      </trkpt>
      <trkpt lat="42.4756759" lon="1.4820587">
        <ele>1001.2</ele>
        <time>2013-09-07T17:52:18Z</time>
      </trkpt>
      <trkpt lat="42.475699" lon="1.482108">
        <ele>1001</ele>
        <time>2013-09-07T17:52:20Z</time>
      </trkpt>
      <trkpt lat="42.4757021" lon="1.4821292">
        <ele>1000.8</ele>
        <time>2013-09-07T17:52:21Z</time>
      </trkpt>
      <trkpt lat="42.4758059" lon="1.48214">
        <ele>1000</ele>
        <time>2013-09-07T17:52:28Z</time>
      </trkpt>
      <trkpt lat="42.4758147" lon="1.482126">
        <ele>999.8</ele>
        <time>2013-09-07T17:52:33Z</time>
      </trkpt>
      <trkpt lat="42.4758205" lon="1.4821522">
        <ele>999.4</ele>
        <time>2013-09-07T17:52:35Z</time>
      </trkpt>
      <trkpt lat="42.4758052" lon="1.4821747">
        <ele>999.2</ele>
        <time>2013-09-07T17:52:36Z</time>
      </trkpt>
      <trkpt lat="42.4757899" lon="1.4822346">
        <ele>998.4</ele>
        <time>2013-09-07T17:52:39Z</time>
      </trkpt>
      <trkpt lat="42.4758569" lon="1.482362">
        <ele>997.2</ele>
        <time>2013-09-07T17:52:44Z</time>
      </trkpt>
      <trkpt lat="42.4758795" lon="1.4824387">
        <ele>995.8</ele>
        <time>2013-09-07T17:52:50Z</time>
      </trkpt>
      <trkpt lat="42.4758384" lon="1.4824237">
        <ele>994.4</ele>
        <time>2013-09-07T17:52:56Z</time>
      </trkpt>
      <trkpt lat="42.4758147" lon="1.4824707">
        <ele>993.2</ele>
        <time>2013-09-07T17:53:01Z</time>
      </trkpt>
      <trkpt lat="42.4758124" lon="1.4824832">
        <ele>992.8</ele>
        <time>2013-09-07T17:53:02Z</time>
      </trkpt>
      <trkpt lat="42.4758334" lon="1.482636">
        <ele>990.6</ele>
        <time>2013-09-07T17:53:10Z</time>
      </trkpt>
      <trkpt lat="42.4758105" lon="1.4827736">
        <ele>988.4</ele>
        <time>2013-09-07T17:53:18Z</time>
      </trkpt>
      <trkpt lat="42.4757894" lon="1.4828895">
        <ele>986.4</ele>
        <time>2013-09-07T17:53:25Z</time>
      </trkpt>
      <trkpt lat="42.4757828" lon="1.482989">
        <ele>984.8</ele>
        <time>2013-09-07T17:53:31Z</time>
      </trkpt>
      <trkpt lat="42.4757736" lon="1.4831225">
        <ele>982.8</ele>
        <time>2013-09-07T17:53:39Z</time>
      </trkpt>
      <trkpt lat="42.4757495" lon="1.483233">
        <ele>980.8</ele>
        <time>2013-09-07T17:53:46Z</time>
      </trkpt>
      <trkpt lat="42.4757384" lon="1.4832573">
        <ele>979.2</ele>
        <time>2013-09-07T17:53:51Z</time>
      </trkpt>
      <trkpt lat="42.4757368" lon="1.4834032">
        <ele>977.2</ele>
        <time>2013-09-07T17:53:59Z</time>
      </trkpt>
      <trkpt lat="42.4757454" lon="1.483613">
        <ele>976.2</ele>
        <time>2013-09-07T17:54:08Z</time>
      </trkpt>
      <trkpt lat="42.4757483" lon="1.4837755">
        <ele>976.4</ele>
        <time>2013-09-07T17:54:17Z</time>
      </trkpt>
      <trkpt lat="42.4757202" lon="1.4837622">
        <ele>976</ele>
        <time>2013-09-07T17:54:22Z</time>
      </trkpt>
      <trkpt lat="42.4757124" lon="1.4838571">
        <ele>975.4</ele>
        <time>2013-09-07T17:54:30Z</time>
      </trkpt>
      <trkpt lat="42.4756941" lon="1.4838649">
        <ele>974.6</ele>
        <time>2013-09-07T17:54:37Z</time>
      </trkpt>
      <trkpt lat="42.475674" lon="1.4838445">
        <ele>974.4</ele>
        <time>2013-09-07T17:54:40Z</time>
      </trkpt>
      <trkpt lat="42.4756281" lon="1.4838019">
        <ele>974</ele>
        <time>2013-09-07T17:54:45Z</time>
      </trkpt>
      <trkpt lat="42.4756332" lon="1.4838294">
        <ele>973.8</ele>
        <time>2013-09-07T17:54:47Z</time>
      </trkpt>
      <trkpt lat="42.4756437" lon="1.4838594">
        <ele>973.4</ele>
        <time>2013-09-07T17:54:50Z</time>
      </trkpt>
      <trkpt lat="42.4756286" lon="1.4839287">
        <ele>972.4</ele>
        <time>2013-09-07T17:54:58Z</time>
      </trkpt>
      <trkpt lat="42.4756186" lon="1.4839652">
        <ele>972</ele>
        <time>2013-09-07T17:55:01Z</time>
      </trkpt>
      <trkpt lat="42.4756153" lon="1.4839807">
        <ele>971.4</ele>
        <time>2013-09-07T17:55:04Z</time>
      </trkpt>
      <trkpt lat="42.4756274" lon="1.4840147">
        <ele>971.2</ele>
        <time>2013-09-07T17:55:06Z</time>
      </trkpt>
      <trkpt lat="42.4756395" lon="1.4840721">
        <ele>970.8</ele>
        <time>2013-09-07T17:55:09Z</time>
      </trkpt>
      <trkpt lat="42.4756412" lon="1.4840942">
        <ele>970.8</ele>
        <time>2013-09-07T17:55:10Z</time>
      </trkpt>
      <trkpt lat="42.4756248" lon="1.4841618">
        <ele>970.6</ele>
        <time>2013-09-07T17:55:13Z</time>
      </trkpt>
      <trkpt lat="42.4756221" lon="1.4842924">
        <ele>971</ele>
        <time>2013-09-07T17:55:17Z</time>
      </trkpt>
      <trkpt lat="42.4756241" lon="1.4843295">
        <ele>971.4</ele>
        <time>2013-09-07T17:55:19Z</time>
      </trkpt>
      <trkpt lat="42.4756134" lon="1.4844884">
        <ele>973.6</ele>
        <time>2013-09-07T17:55:25Z</time>
      </trkpt>
      <trkpt lat="42.4755525" lon="1.4845984">
        <ele>977.2</ele>
        <time>2013-09-07T17:55:33Z</time>
      </trkpt>
      <trkpt lat="42.4754886" lon="1.4846404">
        <ele>976.8</ele>
        <time>2013-09-07T17:55:41Z</time>
      </trkpt>
      <trkpt lat="42.4754769" lon="1.4847225">
        <ele>976</ele>
        <time>2013-09-07T17:55:49Z</time>
      </trkpt>
      <trkpt lat="42.4754616" lon="1.484759">
        <ele>975.6</ele>
        <time>2013-09-07T17:55:52Z</time>
      </trkpt>
      <trkpt lat="42.4754452" lon="1.4848165">
        <ele>975.2</ele>
        <time>2013-09-07T17:55:56Z</time>
      </trkpt>
      <trkpt lat="42.4754454" lon="1.4848686">
        <ele>974.8</ele>
        <time>2013-09-07T17:55:59Z</time>
      </trkpt>
      <trkpt lat="42.4754438" lon="1.4849357">
        <ele>974.2</ele>
        <time>2013-09-07T17:56:03Z</time>
      </trkpt>
      <trkpt lat="42.4754306" lon="1.4850517">
        <ele>973.2</ele>
        <time>2013-09-07T17:56:11Z</time>
      </trkpt>
      <trkpt lat="42.4754054" lon="1.4850577">
        <ele>972</ele>
        <time>2013-09-07T17:56:18Z</time>
      </trkpt>
      <trkpt lat="42.4754057" lon="1.4851598">
        <ele>970.2</ele>
        <time>2013-09-07T17:56:26Z</time>
      </trkpt>
      <trkpt lat="42.4754407" lon="1.4852677">
        <ele>969.6</ele>
        <time>2013-09-07T17:56:31Z</time>
      </trkpt>
      <trkpt lat="42.4754732" lon="1.4853302">
        <ele>968.6</ele>
        <time>2013-09-07T17:56:38Z</time>
      </trkpt>
      <trkpt lat="42.4754822" lon="1.4854677">
        <ele>967.4</ele>
        <time>2013-09-07T17:56:46Z</time>
      </trkpt>
      <trkpt lat="42.4755173" lon="1.4855528">
        <ele>966</ele>
        <time>2013-09-07T17:56:54Z</time>
      </trkpt>
      <trkpt lat="42.475531" lon="1.4856504">
        <ele>964.8</ele>
        <time>2013-09-07T17:57:01Z</time>
      </trkpt>
      <trkpt lat="42.4755514" lon="1.4857492">
        <ele>963</ele>
        <time>2013-09-07T17:57:10Z</time>
      </trkpt>
      <trkpt lat="42.4755711" lon="1.4858268">
        <ele>961.4</ele>
        <time>2013-09-07T17:57:17Z</time>
      </trkpt>
      <trkpt lat="42.4755815" lon="1.4858695">
        <ele>960.6</ele>
        <time>2013-09-07T17:57:21Z</time>
      </trkpt>
      <trkpt lat="42.475616" lon="1.4860191">
        <ele>958.8</ele>
        <time>2013-09-07T17:57:30Z</time>
      </trkpt>
      <trkpt lat="42.4756557" lon="1.4861735">
        <ele>957.2</ele>
        <time>2013-09-07T17:57:40Z</time>
      </trkpt>
      <trkpt lat="42.4756904" lon="1.4863214">
        <ele>955.8</ele>
        <time>2013-09-07T17:57:49Z</time>
      </trkpt>
      <trkpt lat="42.4757198" lon="1.4864594">
        <ele>954.6</ele>
        <time>2013-09-07T17:57:58Z</time>
      </trkpt>
      <trkpt lat="42.4757435" lon="1.4865434">
        <ele>954.2</ele>
        <time>2013-09-07T17:58:03Z</time>
      </trkpt>
      <trkpt lat="42.4757567" lon="1.4866475">
        <ele>953.2</ele>
        <time>2013-09-07T17:58:11Z</time>
      </trkpt>
      <trkpt lat="42.475773" lon="1.486719">
        <ele>952.6</ele>
        <time>2013-09-07T17:58:19Z</time>
      </trkpt>
      <trkpt lat="42.475824" lon="1.4869365">
        <ele>952.4</ele>
        <time>2013-09-07T17:58:29Z</time>
      </trkpt>
      <trkpt lat="42.4758599" lon="1.4870998">
        <ele>953.2</ele>
        <time>2013-09-07T17:58:39Z</time>
      </trkpt>
      <trkpt lat="42.4759027" lon="1.4872648">
        <ele>955.4</ele>
        <time>2013-09-07T17:58:49Z</time>
      </trkpt>
      <trkpt lat="42.4759372" lon="1.4873569">
        <ele>955.6</ele>
        <time>2013-09-07T17:58:59Z</time>
      </trkpt>
      <trkpt lat="42.4759427" lon="1.4874485">
        <ele>954.8</ele>
        <time>2013-09-07T17:59:07Z</time>
      </trkpt>
      <trkpt lat="42.4759583" lon="1.4875261">
        <ele>954.2</ele>
        <time>2013-09-07T17:59:13Z</time>
      </trkpt>
      <trkpt lat="42.4759622" lon="1.4875418">
        <ele>954</ele>
        <time>2013-09-07T17:59:14Z</time>
      </trkpt>
      <trkpt lat="42.4760064" lon="1.4875722">
        <ele>953.6</ele>
        <time>2013-09-07T17:59:18Z</time>
      </trkpt>
      <trkpt lat="42.476081" lon="1.487635">
        <ele>952.6</ele>
        <time>2013-09-07T17:59:25Z</time>
      </trkpt>
      <trkpt lat="42.4761318" lon="1.4876776">
        <ele>951.8</ele>
        <time>2013-09-07T17:59:29Z</time>
      </trkpt>
      <trkpt lat="42.4761377" lon="1.4877762">
        <ele>950.4</ele>
        <time>2013-09-07T17:59:36Z</time>
      </trkpt>
      <trkpt lat="42.4761543" lon="1.4878359">
        <ele>950</ele>
        <time>2013-09-07T17:59:40Z</time>
      </trkpt>
      <trkpt lat="42.4761485" lon="1.4878833">
        <ele>950</ele>
        <time>2013-09-07T17:59:42Z</time>
      </trkpt>
      <trkpt lat="42.4761373" lon="1.4880323">
        <ele>949.8</ele>
        <time>2013-09-07T17:59:48Z</time>
      </trkpt>
      <trkpt lat="42.476142" lon="1.4881384">
        <ele>950.2</ele>
        <time>2013-09-07T17:59:54Z</time>
      </trkpt>
      <trkpt lat="42.4761466" lon="1.4882259">
        <ele>950.2</ele>
        <time>2013-09-07T18:00:00Z</time>
      </trkpt>
      <trkpt lat="42.4761608" lon="1.4883593">
        <ele>950.8</ele>
        <time>2013-09-07T18:00:08Z</time>
      </trkpt>
      <trkpt lat="42.4761859" lon="1.4884939">
        <ele>951.8</ele>
        <time>2013-09-07T18:00:16Z</time>
      </trkpt>
      <trkpt lat="42.4762147" lon="1.4886477">
        <ele>953.6</ele>
        <time>2013-09-07T18:00:25Z</time>
      </trkpt>
      <trkpt lat="42.4762917" lon="1.4886741">
        <ele>955.2</ele>
        <time>2013-09-07T18:00:33Z</time>
      </trkpt>
      <trkpt lat="42.4762917" lon="1.4886948">
        <ele>955.2</ele>
        <time>2013-09-07T18:00:35Z</time>
      </trkpt>
      <trkpt lat="42.4762925" lon="1.4887236">
        <ele>955.2</ele>
        <time>2013-09-07T18:00:37Z</time>
      </trkpt>
      <trkpt lat="42.47629" lon="1.4887676">
        <ele>955.2</ele>
        <time>2013-09-07T18:00:40Z</time>
      </trkpt>
      <trkpt lat="42.4762844" lon="1.4887795">
        <ele>955</ele>
        <time>2013-09-07T18:00:43Z</time>
      </trkpt>
      <trkpt lat="42.4762964" lon="1.488878">
        <ele>954.6</ele>
        <time>2013-09-07T18:00:50Z</time>
      </trkpt>
      <trkpt lat="42.4763021" lon="1.4890131">
        <ele>954.4</ele>
        <time>2013-09-07T18:00:58Z</time>
      </trkpt>
      <trkpt lat="42.4763193" lon="1.4890986">
        <ele>955.2</ele>
        <time>2013-09-07T18:01:03Z</time>
      </trkpt>
      <trkpt lat="42.476314" lon="1.4891074">
        <ele>955.2</ele>
        <time>2013-09-07T18:01:04Z</time>
      </trkpt>
      <trkpt lat="42.4763455" lon="1.4891168">
        <ele>954.8</ele>
        <time>2013-09-07T18:01:09Z</time>
      </trkpt>
      <trkpt lat="42.4764236" lon="1.4891748">
        <ele>954</ele>
        <time>2013-09-07T18:01:17Z</time>
      </trkpt>
      <trkpt lat="42.4765228" lon="1.4891743">
        <ele>953.4</ele>
        <time>2013-09-07T18:01:20Z</time>
      </trkpt>
      <trkpt lat="42.476526" lon="1.4891862">
        <ele>953.2</ele>
        <time>2013-09-07T18:01:21Z</time>
      </trkpt>
      <trkpt lat="42.4765208" lon="1.4892162">
        <ele>953</ele>
        <time>2013-09-07T18:01:23Z</time>
      </trkpt>
      <trkpt lat="42.4765115" lon="1.4892434">
        <ele>952.8</ele>
        <time>2013-09-07T18:01:24Z</time>
      </trkpt>
      <trkpt lat="42.4765106" lon="1.4893989">
        <ele>951.8</ele>
        <time>2013-09-07T18:01:33Z</time>
      </trkpt>
      <trkpt lat="42.4765253" lon="1.4894264">
        <ele>951.6</ele>
        <time>2013-09-07T18:01:35Z</time>
      </trkpt>
      <trkpt lat="42.4765388" lon="1.4894637">
        <ele>951.6</ele>
        <time>2013-09-07T18:01:37Z</time>
      </trkpt>
      <trkpt lat="42.4765566" lon="1.4894992">
        <ele>951.4</ele>
        <time>2013-09-07T18:01:40Z</time>
      </trkpt>
      <trkpt lat="42.4765599" lon="1.4895147">
        <ele>951.4</ele>
        <time>2013-09-07T18:01:41Z</time>
      </trkpt>
      <trkpt lat="42.4765723" lon="1.4895357">
        <ele>951.4</ele>
        <time>2013-09-07T18:01:42Z</time>
      </trkpt>
      <trkpt lat="42.4765704" lon="1.4896822">
        <ele>951.2</ele>
        <time>2013-09-07T18:01:49Z</time>
      </trkpt>
      <trkpt lat="42.47652" lon="1.4897739">
        <ele>950.6</ele>
        <time>2013-09-07T18:01:55Z</time>
      </trkpt>
      <trkpt lat="42.4764851" lon="1.4898552">
        <ele>949.8</ele>
        <time>2013-09-07T18:02:01Z</time>
      </trkpt>
      <trkpt lat="42.476474" lon="1.4899216">
        <ele>949.4</ele>
        <time>2013-09-07T18:02:04Z</time>
      </trkpt>
      <trkpt lat="42.4764622" lon="1.4900144">
        <ele>948.8</ele>
        <time>2013-09-07T18:02:09Z</time>
      </trkpt>
      <trkpt lat="42.4764503" lon="1.490099">
        <ele>948.4</ele>
        <time>2013-09-07T18:02:16Z</time>
      </trkpt>
      <trkpt lat="42.4764509" lon="1.4902425">
        <ele>949.6</ele>
        <time>2013-09-07T18:02:22Z</time>
      </trkpt>
      <trkpt lat="42.4764517" lon="1.4902733">
        <ele>950</ele>
        <time>2013-09-07T18:02:24Z</time>
      </trkpt>
      <trkpt lat="42.4764443" lon="1.4904055">
        <ele>952.4</ele>
        <time>2013-09-07T18:02:31Z</time>
      </trkpt>
      <trkpt lat="42.4763946" lon="1.4904881">
        <ele>953.4</ele>
        <time>2013-09-07T18:02:39Z</time>
      </trkpt>
      <trkpt lat="42.4763446" lon="1.4905568">
        <ele>953.6</ele>
        <time>2013-09-07T18:02:47Z</time>
      </trkpt>
      <trkpt lat="42.4762877" lon="1.4906257">
        <ele>953.2</ele>
        <time>2013-09-07T18:02:55Z</time>
      </trkpt>
      <trkpt lat="42.47621" lon="1.4906562">
        <ele>952.6</ele>
        <time>2013-09-07T18:03:04Z</time>
      </trkpt>
      <trkpt lat="42.476099" lon="1.4906353">
        <ele>951.4</ele>
        <time>2013-09-07T18:03:14Z</time>
      </trkpt>
      <trkpt lat="42.4760088" lon="1.4905868">
        <ele>950.2</ele>
        <time>2013-09-07T18:03:23Z</time>
      </trkpt>
      <trkpt lat="42.4759173" lon="1.4905668">
        <ele>949</ele>
        <time>2013-09-07T18:03:31Z</time>
      </trkpt>
      <trkpt lat="42.4758314" lon="1.4905593">
        <ele>948</ele>
        <time>2013-09-07T18:03:38Z</time>
      </trkpt>
      <trkpt lat="42.475765" lon="1.4905571">
        <ele>947.2</ele>
        <time>2013-09-07T18:03:44Z</time>
      </trkpt>
      <trkpt lat="42.4757677" lon="1.4905536">
        <ele>947</ele>
        <time>2013-09-07T18:03:46Z</time>
      </trkpt>
      <trkpt lat="42.4757175" lon="1.4905497">
        <ele>946.4</ele>
        <time>2013-09-07T18:03:51Z</time>
      </trkpt>
      <trkpt lat="42.4756055" lon="1.4905496">
        <ele>945.2</ele>
        <time>2013-09-07T18:04:00Z</time>
      </trkpt>
      <trkpt lat="42.475574" lon="1.4905461">
        <ele>944.8</ele>
        <time>2013-09-07T18:04:05Z</time>
      </trkpt>
      <trkpt lat="42.4755242" lon="1.4905511">
        <ele>944</ele>
        <time>2013-09-07T18:04:11Z</time>
      </trkpt>
      <trkpt lat="42.4754413" lon="1.4905677">
        <ele>943</ele>
        <time>2013-09-07T18:04:19Z</time>
      </trkpt>
      <trkpt lat="42.4753685" lon="1.4905892">
        <ele>942</ele>
        <time>2013-09-07T18:04:27Z</time>
      </trkpt>
      <trkpt lat="42.4752476" lon="1.4905915">
        <ele>940.2</ele>
        <time>2013-09-07T18:04:36Z</time>
      </trkpt>
      <trkpt lat="42.4751317" lon="1.4905822">
        <ele>939.8</ele>
        <time>2013-09-07T18:04:44Z</time>
      </trkpt>
      <trkpt lat="42.4751317" lon="1.4906734">
        <ele>938.4</ele>
        <time>2013-09-07T18:04:52Z</time>
      </trkpt>
      <trkpt lat="42.475129" lon="1.4906807">
        <ele>938.2</ele>
        <time>2013-09-07T18:04:53Z</time>
      </trkpt>
      <trkpt lat="42.4750507" lon="1.4906527">
        <ele>937.4</ele>
        <time>2013-09-07T18:04:59Z</time>
      </trkpt>
      <trkpt lat="42.4750045" lon="1.4905899">
        <ele>936.8</ele>
        <time>2013-09-07T18:05:05Z</time>
      </trkpt>
      <trkpt lat="42.4749702" lon="1.4905517">
        <ele>936.4</ele>
        <time>2013-09-07T18:05:08Z</time>
      </trkpt>
      <trkpt lat="42.4748733" lon="1.4905145">
        <ele>936.4</ele>
        <time>2013-09-07T18:05:12Z</time>
      </trkpt>
      <trkpt lat="42.4748022" lon="1.4905069">
        <ele>936.4</ele>
        <time>2013-09-07T18:05:14Z</time>
      </trkpt>
      <trkpt lat="42.4747468" lon="1.4905262">
        <ele>936.8</ele>
        <time>2013-09-07T18:05:16Z</time>
      </trkpt>
      <trkpt lat="42.4747141" lon="1.4905411">
        <ele>937</ele>
        <time>2013-09-07T18:05:18Z</time>
      </trkpt>
      <trkpt lat="42.4746121" lon="1.4906121">
        <ele>937.2</ele>
        <time>2013-09-07T18:05:26Z</time>
      </trkpt>
      <trkpt lat="42.4746083" lon="1.4906421">
        <ele>936.8</ele>
        <time>2013-09-07T18:05:31Z</time>
      </trkpt>
      <trkpt lat="42.4745865" lon="1.4906836">
        <ele>936.4</ele>
        <time>2013-09-07T18:05:38Z</time>
      </trkpt>
      <trkpt lat="42.4745201" lon="1.4907734">
        <ele>934.2</ele>
        <time>2013-09-07T18:05:44Z</time>
      </trkpt>
      <trkpt lat="42.4743781" lon="1.4907495">
        <ele>932.6</ele>
        <time>2013-09-07T18:05:50Z</time>
      </trkpt>
      <trkpt lat="42.4743416" lon="1.4907643">
        <ele>932.2</ele>
        <time>2013-09-07T18:05:53Z</time>
      </trkpt>
      <trkpt lat="42.4743089" lon="1.4908195">
        <ele>931.6</ele>
        <time>2013-09-07T18:06:00Z</time>
      </trkpt>
      <trkpt lat="42.4742609" lon="1.490903">
        <ele>931.6</ele>
        <time>2013-09-07T18:06:07Z</time>
      </trkpt>
      <trkpt lat="42.4742547" lon="1.4909596">
        <ele>932.2</ele>
        <time>2013-09-07T18:06:13Z</time>
      </trkpt>
      <trkpt lat="42.4742148" lon="1.4910143">
        <ele>932.6</ele>
        <time>2013-09-07T18:06:20Z</time>
      </trkpt>
      <trkpt lat="42.4741868" lon="1.4910589">
        <ele>932.6</ele>
        <time>2013-09-07T18:06:25Z</time>
      </trkpt>
      <trkpt lat="42.474142" lon="1.4911182">
        <ele>932</ele>
        <time>2013-09-07T18:06:31Z</time>
      </trkpt>
      <trkpt lat="42.4740945" lon="1.4911599">
        <ele>931.2</ele>
        <time>2013-09-07T18:06:37Z</time>
      </trkpt>
      <trkpt lat="42.4740551" lon="1.4912025">
        <ele>930.6</ele>
        <time>2013-09-07T18:06:43Z</time>
      </trkpt>
      <trkpt lat="42.474015" lon="1.4912562">
        <ele>930.2</ele>
        <time>2013-09-07T18:06:51Z</time>
      </trkpt>
      <trkpt lat="42.4739497" lon="1.4913697">
        <ele>930</ele>
        <time>2013-09-07T18:07:00Z</time>
      </trkpt>
      <trkpt lat="42.473934" lon="1.4914141">
        <ele>929.8</ele>
        <time>2013-09-07T18:07:04Z</time>
      </trkpt>
      <trkpt lat="42.4739203" lon="1.4914504">
        <ele>930</ele>
        <time>2013-09-07T18:07:07Z</time>
      </trkpt>
      <trkpt lat="42.4738753" lon="1.4916053">
        <ele>931.2</ele>
        <time>2013-09-07T18:07:16Z</time>
      </trkpt>
      <trkpt lat="42.4738505" lon="1.4916592">
        <ele>932</ele>
        <time>2013-09-07T18:07:21Z</time>
      </trkpt>
      <trkpt lat="42.4738503" lon="1.4916743">
        <ele>932.2</ele>
        <time>2013-09-07T18:07:23Z</time>
      </trkpt>
      <trkpt lat="42.4738391" lon="1.4917093">
        <ele>932.6</ele>
        <time>2013-09-07T18:07:27Z</time>
      </trkpt>
      <trkpt lat="42.4738251" lon="1.4917443">
        <ele>932.8</ele>
        <time>2013-09-07T18:07:30Z</time>
      </trkpt>
      <trkpt lat="42.4738086" lon="1.4917678">
        <ele>933</ele>
        <time>2013-09-07T18:07:36Z</time>
      </trkpt>
      <trkpt lat="42.473775" lon="1.4918336">
        <ele>932.8</ele>
        <time>2013-09-07T18:07:44Z</time>
      </trkpt>
      <trkpt lat="42.4737355" lon="1.4919101">
        <ele>932.8</ele>
        <time>2013-09-07T18:07:51Z</time>
      </trkpt>
      <trkpt lat="42.4737262" lon="1.4919331">
        <ele>932.6</ele>
        <time>2013-09-07T18:07:53Z</time>
      </trkpt>
      <trkpt lat="42.4737158" lon="1.4919613">
        <ele>932.6</ele>
        <time>2013-09-07T18:07:56Z</time>
      </trkpt>
      <trkpt lat="42.4737013" lon="1.4920498">
        <ele>932.6</ele>
        <time>2013-09-07T18:08:01Z</time>
      </trkpt>
      <trkpt lat="42.4736427" lon="1.4921441">
        <ele>932.6</ele>
        <time>2013-09-07T18:08:09Z</time>
      </trkpt>
      <trkpt lat="42.4736053" lon="1.4922121">
        <ele>932.4</ele>
        <time>2013-09-07T18:08:15Z</time>
      </trkpt>
      <trkpt lat="42.4736003" lon="1.4922174">
        <ele>932.4</ele>
        <time>2013-09-07T18:08:16Z</time>
      </trkpt>
      <trkpt lat="42.4735833" lon="1.4922848">
        <ele>932.4</ele>
        <time>2013-09-07T18:08:21Z</time>
      </trkpt>
      <trkpt lat="42.4735715" lon="1.4923113">
        <ele>932.4</ele>
        <time>2013-09-07T18:08:23Z</time>
      </trkpt>
      <trkpt lat="42.4735542" lon="1.492379">
        <ele>932.2</ele>
        <time>2013-09-07T18:08:29Z</time>
      </trkpt>
      <trkpt lat="42.4735194" lon="1.492497">
        <ele>932.2</ele>
        <time>2013-09-07T18:08:37Z</time>
      </trkpt>
      <trkpt lat="42.4735253" lon="1.4924565">
        <ele>932.4</ele>
        <time>2013-09-07T18:08:42Z</time>
      </trkpt>
      <trkpt lat="42.4735504" lon="1.4924517">
        <ele>932.6</ele>
        <time>2013-09-07T18:08:45Z</time>
      </trkpt>
      <trkpt lat="42.473553" lon="1.4924833">
        <ele>932.8</ele>
        <time>2013-09-07T18:08:47Z</time>
      </trkpt>
      <trkpt lat="42.4735321" lon="1.4925772">
        <ele>933.2</ele>
        <time>2013-09-07T18:08:55Z</time>
      </trkpt>
      <trkpt lat="42.473493" lon="1.4926718">
        <ele>933.4</ele>
        <time>2013-09-07T18:09:03Z</time>
      </trkpt>
      <trkpt lat="42.473487" lon="1.492697">
        <ele>933.4</ele>
        <time>2013-09-07T18:09:04Z</time>
      </trkpt>
      <trkpt lat="42.4734601" lon="1.4927875">
        <ele>934.2</ele>
        <time>2013-09-07T18:09:09Z</time>
      </trkpt>
      <trkpt lat="42.4734178" lon="1.4929315">
        <ele>936.8</ele>
        <time>2013-09-07T18:09:17Z</time>
      </trkpt>
      <trkpt lat="42.473379" lon="1.4930032">
        <ele>938.8</ele>
        <time>2013-09-07T18:09:24Z</time>
      </trkpt>
      <trkpt lat="42.4733337" lon="1.4930428">
        <ele>939.8</ele>
        <time>2013-09-07T18:09:31Z</time>
      </trkpt>
      <trkpt lat="42.4732843" lon="1.4931322">
        <ele>940</ele>
        <time>2013-09-07T18:09:41Z</time>
      </trkpt>
      <trkpt lat="42.4732495" lon="1.493147">
        <ele>939.4</ele>
        <time>2013-09-07T18:09:53Z</time>
      </trkpt>
      <trkpt lat="42.4731761" lon="1.4932111">
        <ele>938.2</ele>
        <time>2013-09-07T18:10:03Z</time>
      </trkpt>
      <trkpt lat="42.4731256" lon="1.4932454">
        <ele>937.4</ele>
        <time>2013-09-07T18:10:10Z</time>
      </trkpt>
      <trkpt lat="42.4731175" lon="1.4932527">
        <ele>937.4</ele>
        <time>2013-09-07T18:10:11Z</time>
      </trkpt>
      <trkpt lat="42.4730548" lon="1.4932718">
        <ele>936.4</ele>
        <time>2013-09-07T18:10:18Z</time>
      </trkpt>
      <trkpt lat="42.4730102" lon="1.4933166">
        <ele>935.8</ele>
        <time>2013-09-07T18:10:23Z</time>
      </trkpt>
      <trkpt lat="42.4729774" lon="1.493334">
        <ele>935.4</ele>
        <time>2013-09-07T18:10:27Z</time>
      </trkpt>
      <trkpt lat="42.4729096" lon="1.4933511">
        <ele>934.8</ele>
        <time>2013-09-07T18:10:35Z</time>
      </trkpt>
      <trkpt lat="42.4729037" lon="1.493358">
        <ele>934.8</ele>
        <time>2013-09-07T18:10:36Z</time>
      </trkpt>
      <trkpt lat="42.4728282" lon="1.493372">
        <ele>934.4</ele>
        <time>2013-09-07T18:10:42Z</time>
      </trkpt>
      <trkpt lat="42.4727422" lon="1.4933749">
        <ele>933.8</ele>
        <time>2013-09-07T18:10:49Z</time>
      </trkpt>
      <trkpt lat="42.4727169" lon="1.4933795">
        <ele>933.6</ele>
        <time>2013-09-07T18:10:51Z</time>
      </trkpt>
      <trkpt lat="42.4726288" lon="1.4933741">
        <ele>932.8</ele>
        <time>2013-09-07T18:10:59Z</time>
      </trkpt>
      <trkpt lat="42.4726117" lon="1.4933654">
        <ele>932.8</ele>
        <time>2013-09-07T18:11:01Z</time>
      </trkpt>
      <trkpt lat="42.4725928" lon="1.4933638">
        <ele>932.6</ele>
        <time>2013-09-07T18:11:03Z</time>
      </trkpt>
      <trkpt lat="42.4725541" lon="1.493371">
        <ele>932.2</ele>
        <time>2013-09-07T18:11:07Z</time>
      </trkpt>
      <trkpt lat="42.4725359" lon="1.4933679">
        <ele>932</ele>
        <time>2013-09-07T18:11:09Z</time>
      </trkpt>
      <trkpt lat="42.4725142" lon="1.4933631">
        <ele>931.8</ele>
        <time>2013-09-07T18:11:11Z</time>
      </trkpt>
      <trkpt lat="42.4724939" lon="1.4933629">
        <ele>931.6</ele>
        <time>2013-09-07T18:11:13Z</time>
      </trkpt>
      <trkpt lat="42.4724689" lon="1.4933516">
        <ele>931.2</ele>
        <time>2013-09-07T18:11:16Z</time>
      </trkpt>
      <trkpt lat="42.4723891" lon="1.4933973">
        <ele>930.4</ele>
        <time>2013-09-07T18:11:24Z</time>
      </trkpt>
      <trkpt lat="42.4723415" lon="1.4934079">
        <ele>929.8</ele>
        <time>2013-09-07T18:11:29Z</time>
      </trkpt>
      <trkpt lat="42.4723317" lon="1.4934038">
        <ele>929.6</ele>
        <time>2013-09-07T18:11:30Z</time>
      </trkpt>
      <trkpt lat="42.472271" lon="1.4933786">
        <ele>929</ele>
        <time>2013-09-07T18:11:37Z</time>
      </trkpt>
      <trkpt lat="42.4721973" lon="1.4933666">
        <ele>928.2</ele>
        <time>2013-09-07T18:11:44Z</time>
      </trkpt>
      <trkpt lat="42.4720976" lon="1.4933463">
        <ele>927.2</ele>
        <time>2013-09-07T18:11:53Z</time>
      </trkpt>
      <trkpt lat="42.4720296" lon="1.4933419">
        <ele>926.6</ele>
        <time>2013-09-07T18:12:00Z</time>
      </trkpt>
      <trkpt lat="42.4719452" lon="1.4933768">
        <ele>926.2</ele>
        <time>2013-09-07T18:12:07Z</time>
      </trkpt>
      <trkpt lat="42.4718492" lon="1.4933041">
        <ele>926</ele>
        <time>2013-09-07T18:12:13Z</time>
      </trkpt>
      <trkpt lat="42.4717829" lon="1.4932495">
        <ele>926.8</ele>
        <time>2013-09-07T18:12:19Z</time>
      </trkpt>
      <trkpt lat="42.4717606" lon="1.4932574">
        <ele>926.8</ele>
        <time>2013-09-07T18:12:22Z</time>
      </trkpt>
      <trkpt lat="42.4717359" lon="1.4932498">
        <ele>926.8</ele>
        <time>2013-09-07T18:12:26Z</time>
      </trkpt>
      <trkpt lat="42.4716669" lon="1.4932344">
        <ele>926.6</ele>
        <time>2013-09-07T18:12:34Z</time>
      </trkpt>
      <trkpt lat="42.4716433" lon="1.4932267">
        <ele>926.2</ele>
        <time>2013-09-07T18:12:40Z</time>
      </trkpt>
      <trkpt lat="42.4716148" lon="1.493228">
        <ele>925.8</ele>
        <time>2013-09-07T18:12:45Z</time>
      </trkpt>
      <trkpt lat="42.4715253" lon="1.4931925">
        <ele>925</ele>
        <time>2013-09-07T18:12:55Z</time>
      </trkpt>
      <trkpt lat="42.4714697" lon="1.4931874">
        <ele>924</ele>
        <time>2013-09-07T18:13:04Z</time>
      </trkpt>
      <trkpt lat="42.4713943" lon="1.4931538">
        <ele>923.4</ele>
        <time>2013-09-07T18:13:11Z</time>
      </trkpt>
      <trkpt lat="42.4712775" lon="1.4931239">
        <ele>922.8</ele>
        <time>2013-09-07T18:13:21Z</time>
      </trkpt>
      <trkpt lat="42.4711918" lon="1.4931257">
        <ele>922.4</ele>
        <time>2013-09-07T18:13:29Z</time>
      </trkpt>
      <trkpt lat="42.4710921" lon="1.4931222">
        <ele>922.2</ele>
        <time>2013-09-07T18:13:37Z</time>
      </trkpt>
      <trkpt lat="42.4709845" lon="1.4931242">
        <ele>921.8</ele>
        <time>2013-09-07T18:13:47Z</time>
      </trkpt>
      <trkpt lat="42.4708516" lon="1.4930968">
        <ele>921.4</ele>
        <time>2013-09-07T18:13:57Z</time>
      </trkpt>
      <trkpt lat="42.4708277" lon="1.4930791">
        <ele>921.2</ele>
        <time>2013-09-07T18:14:03Z</time>
      </trkpt>
      <trkpt lat="42.4707897" lon="1.4930625">
        <ele>921</ele>
        <time>2013-09-07T18:14:11Z</time>
      </trkpt>
      <trkpt lat="42.4707612" lon="1.4930485">
        <ele>921</ele>
        <time>2013-09-07T18:14:13Z</time>
      </trkpt>
      <trkpt lat="42.4707292" lon="1.4930221">
        <ele>921.8</ele>
        <time>2013-09-07T18:14:20Z</time>
      </trkpt>
      <trkpt lat="42.4706882" lon="1.4930041">
        <ele>923.2</ele>
        <time>2013-09-07T18:14:28Z</time>
      </trkpt>
      <trkpt lat="42.4706708" lon="1.4929828">
        <ele>924</ele>
        <time>2013-09-07T18:14:29Z</time>
      </trkpt>
      <trkpt lat="42.4706576" lon="1.4929758">
        <ele>927</ele>
        <time>2013-09-07T18:14:35Z</time>
      </trkpt>
      <trkpt lat="42.4706292" lon="1.4929981">
        <ele>927.4</ele>
        <time>2013-09-07T18:14:42Z</time>
      </trkpt>
      <trkpt lat="42.4705858" lon="1.493009">
        <ele>926.8</ele>
        <time>2013-09-07T18:14:50Z</time>
      </trkpt>
      <trkpt lat="42.4705383" lon="1.4929876">
        <ele>926.4</ele>
        <time>2013-09-07T18:14:56Z</time>
      </trkpt>
      <trkpt lat="42.4705113" lon="1.492972">
        <ele>926.2</ele>
        <time>2013-09-07T18:14:59Z</time>
      </trkpt>
      <trkpt lat="42.4704724" lon="1.4929584">
        <ele>925.8</ele>
        <time>2013-09-07T18:15:03Z</time>
      </trkpt>
      <trkpt lat="42.4704512" lon="1.4929548">
        <ele>925.8</ele>
        <time>2013-09-07T18:15:05Z</time>
      </trkpt>
      <trkpt lat="42.470399" lon="1.4929501">
        <ele>925.2</ele>
        <time>2013-09-07T18:15:11Z</time>
      </trkpt>
      <trkpt lat="42.4703149" lon="1.4929781">
        <ele>924.8</ele>
        <time>2013-09-07T18:15:20Z</time>
      </trkpt>
      <trkpt lat="42.4702502" lon="1.4929484">
        <ele>924.6</ele>
        <time>2013-09-07T18:15:27Z</time>
      </trkpt>
      <trkpt lat="42.4701578" lon="1.4928921">
        <ele>924.4</ele>
        <time>2013-09-07T18:15:35Z</time>
      </trkpt>
      <trkpt lat="42.4699975" lon="1.4927894">
        <ele>924.4</ele>
        <time>2013-09-07T18:15:44Z</time>
      </trkpt>
      <trkpt lat="42.4699609" lon="1.4927777">
        <ele>924</ele>
        <time>2013-09-07T18:15:52Z</time>
      </trkpt>
      <trkpt lat="42.4699109" lon="1.4927722">
        <ele>923.2</ele>
        <time>2013-09-07T18:16:04Z</time>
      </trkpt>
      <trkpt lat="42.469821" lon="1.4927216">
        <ele>922.6</ele>
        <time>2013-09-07T18:16:13Z</time>
      </trkpt>
      <trkpt lat="42.4698137" lon="1.4927173">
        <ele>922.6</ele>
        <time>2013-09-07T18:16:14Z</time>
      </trkpt>
      <trkpt lat="42.469833" lon="1.4927489">
        <ele>921.8</ele>
        <time>2013-09-07T18:16:21Z</time>
      </trkpt>
      <trkpt lat="42.4698367" lon="1.4927657">
        <ele>921.4</ele>
        <time>2013-09-07T18:16:25Z</time>
      </trkpt>
    </trkseg>
  </trk>
</gpx>